Flight Track Log - Related Links

Times and Time Zones

All times are in EDT time to prevent confusion due to time zone crossing. See the AFL150 flight status page for this flight to view local times or setup timezone preferences in your user account.

Time Position Orientation Groundspeed Altitude Reporting Facility
EDT Latitude Longitude Course Direction KTS MPH feet Rate Location/Type
Sat 09:36:35 AM 55.9660 37.3810 239° Southwest 178 205 1,200  Level FlightAware ADS-B
Sat 09:37:22 AM 55.9580 37.3220 256° West 175 201 2,900 1,658 Climbing FlightAware ADS-B
Sat 09:37:51 AM 55.9520 37.2730 258° West 210 242 3,300 1,357 Climbing FlightAware ADS-B
Sat 09:38:46 AM 55.9740 37.1750 292° West 250 288 4,800 1,560 Climbing FlightAware ADS-B
Sat 09:39:31 AM 55.9950 37.0930 295° West 251 289 5,900 2,118 Climbing FlightAware ADS-B
Sat 09:40:11 AM 56.0160 37.0110 295° West 253 291 7,800 2,625 Climbing FlightAware ADS-B
Sat 09:40:51 AM 56.0350 36.9370 295° West 258 297 9,400 2,301 Climbing FlightAware ADS-B
Sat 09:41:24 AM 56.0510 36.8730 294° West 267 307 10,600 2,000 Climbing FlightAware ADS-B
Sat 09:42:03 AM 56.0720 36.7910 295° West 290 334 11,800 1,663 Climbing FlightAware ADS-B
Sat 09:42:47 AM 56.0960 36.6930 294° West 318 366 12,900 1,571 Climbing FlightAware ADS-B
Sat 09:43:27 AM 56.1220 36.5890 294° West 338 389 14,000 2,357 Climbing FlightAware ADS-B
Sat 09:44:11 AM 56.1500 36.4780 294° West 326 375 16,200 2,583 Climbing FlightAware ADS-B
Sat 09:44:39 AM 56.1670 36.4080 294° West 330 380 17,100 2,250 Climbing FlightAware ADS-B
Sat 09:45:15 AM 56.1890 36.3180 294° West 330 380 18,600 2,118 Climbing FlightAware ADS-B
Sat 09:45:47 AM 56.2090 36.2370 294° West 335 386 19,500 1,875 Climbing FlightAware ADS-B
Sat 09:46:35 AM 56.2380 36.1160 293° West 337 388 21,100 1,740 Climbing FlightAware ADS-B
Sat 09:47:27 AM 56.2710 35.9810 294° West 347 399 22,400 1,438 Climbing FlightAware ADS-B
Sat 09:48:11 AM 56.3000 35.8620 294° West 358 412 23,400 1,432 Climbing FlightAware ADS-B
Sat 09:48:55 AM 56.3290 35.7410 293° West 362 417 24,500 1,500 Climbing FlightAware ADS-B
Sat 09:49:39 AM 56.3580 35.6200 293° West 365 420 25,600 1,421 Climbing FlightAware ADS-B
Sat 09:50:11 AM 56.3790 35.5300 293° West 368 423 26,300 1,313 Climbing FlightAware ADS-B
Sat 09:50:43 AM 56.4010 35.4390 294° West 370 426 27,000 1,304 Climbing FlightAware ADS-B
Sat 09:51:20 AM 56.4250 35.3350 293° West 372 428 27,800 1,171 Climbing FlightAware ADS-B
Sat 09:52:05 AM 56.4560 35.2020 293° West 376 433 28,600 1,024 Climbing FlightAware ADS-B
Sat 09:52:42 AM 56.4830 35.0960 295° West 382 440 29,200 986 Climbing FlightAware ADS-B
Sat 09:53:18 AM 56.5180 34.9970 303° West 387 445 29,800 929 Climbing FlightAware ADS-B
Sat 09:54:06 AM 56.5740 34.8820 312° West 397 457 30,500 913 Climbing FlightAware ADS-B
Sat 09:54:50 AM 56.6390 34.7920 323° Northwest 407 468 31,200 857 Climbing FlightAware ADS-B
Sat 09:55:30 AM 56.7050 34.7200 329° Northwest 411 473 31,700 1,059 Climbing FlightAware ADS-B
Sat 09:55:58 AM 56.7490 34.6710 329° Northwest 405 466 32,400 1,412 Climbing FlightAware ADS-B
Sat 09:56:38 AM 56.8080 34.6030 328° Northwest 397 457 33,300 857 Climbing FlightAware ADS-B
Sat 09:57:22 AM 56.8790 34.5200 327° Northwest 404 465 33,600 429 Climbing FlightAware ADS-B
Sat 09:58:02 AM 56.9450 34.4440 328° Northwest 411 473 33,900 261 Climbing FlightAware ADS-B
Sat 09:58:54 AM 57.0280 34.3460 327° Northwest 415 478 34,000 67 Climbing FlightAware ADS-B
Sat 09:59:31 AM 57.0860 34.2780 328° Northwest 413 475 34,000  Level FlightAware ADS-B
Sat 10:00:06 AM 57.1440 34.2100 328° Northwest 411 473 34,000  Level FlightAware ADS-B
Sat 10:00:46 AM 57.2060 34.1360 327° Northwest 412 474 34,000  Level FlightAware ADS-B
Sat 10:01:27 AM 57.2720 34.0580 327° Northwest 412 474 34,000  Level FlightAware ADS-B
Sat 10:02:10 AM 57.3410 33.9740 327° Northwest 411 473 34,000  Level FlightAware ADS-B
Sat 10:02:46 AM 57.3950 33.9090 327° Northwest 410 472 34,000  Level FlightAware ADS-B
Sat 10:03:22 AM 57.4520 33.8410 327° Northwest 406 467 34,000  Level FlightAware ADS-B
Sat 10:04:06 AM 57.5250 33.7520 327° Northwest 406 467 34,000  Level FlightAware ADS-B
Sat 10:04:50 AM 57.5900 33.6740 327° Northwest 407 468 34,000  Level FlightAware ADS-B
Sat 10:05:34 AM 57.6620 33.5860 327° Northwest 408 470 34,000  Level FlightAware ADS-B
Sat 10:06:14 AM 57.7260 33.5070 327° Northwest 405 466 34,000  Level FlightAware ADS-B
Sat 10:06:49 AM 57.7800 33.4390 326° Northwest 403 464 34,000  Level FlightAware ADS-B
Sat 10:07:19 AM 57.8260 33.3800 326° Northwest 404 465 34,000  Level FlightAware ADS-B
Sat 10:08:04 AM 57.8930 33.2930 325° Northwest 405 466 34,000  Level FlightAware ADS-B
Sat 10:08:44 AM 57.9550 33.2130 326° Northwest 405 466 34,000  Level FlightAware ADS-B
Sat 10:09:22 AM 58.0110 33.1400 325° Northwest 405 466 34,000  Level FlightAware ADS-B
Sat 10:09:58 AM 58.0680 33.0660 326° Northwest 404 465 34,000  Level FlightAware ADS-B
Sat 10:10:48 AM 58.1330 32.9800 325° Northwest 404 465 34,000  Level FlightAware ADS-B
Sat 10:11:00 AM 58.1490 32.9590 325° Northwest 404 465 34,000  Level FlightAware ADS-B
Sat 10:12:14 AM 58.2450 32.8310 325° Northwest 404 465 34,000  Level FlightAware ADS-B
Sat 10:13:15 AM 58.3250 32.7250 325° Northwest 404 465 34,000  Level FlightAware ADS-B
Sat 10:13:51 AM 58.3720 32.6630 325° Northwest 404 465 34,000  Level FlightAware ADS-B
Sat 10:14:28 AM 58.4200 32.5980 325° Northwest 404 465 34,000  Level FlightAware ADS-B
Sat 10:15:42 AM 58.5600 32.3160 314° West 398 458 34,000  Level FlightAware ADS-B
Sat 10:16:21 AM 58.6180 32.2250 321° Northwest 400 460 34,000  Level FlightAware ADS-B
Sat 10:16:52 AM 58.6670 32.1480 321° Northwest 403 464 34,000  Level FlightAware ADS-B
Sat 10:17:33 AM 58.7240 32.0600 321° Northwest 404 465 34,000  Level FlightAware ADS-B
Sat 10:18:03 AM 58.7620 32.0000 321° Northwest 404 465 34,000  Level FlightAware ADS-B
Sat 10:18:56 AM 58.8440 31.8690 320° Northwest 402 463 34,000  Level FlightAware ADS-B
Sat 10:19:36 AM 58.8980 31.7830 321° Northwest 402 463 34,000  Level FlightAware ADS-B
Sat 10:20:16 AM 58.9570 31.6890 321° Northwest 405 466 34,000  Level FlightAware ADS-B
Sat 10:20:42 AM 58.9890 31.6370 320° Northwest 406 467 34,000  Level FlightAware ADS-B
Sat 10:21:57 AM 59.1010 31.4530 320° Northwest 396 456 34,000  Level FlightAware ADS-B
Sat 10:22:43 AM 59.1380 31.3140 297° West 373 429 34,000  Level FlightAware ADS-B
Sat 10:23:22 AM 59.1670 31.1990 296° West 387 445 34,000  Level FlightAware ADS-B
Sat 10:23:57 AM 59.2230 31.1180 324° Northwest 420 483 34,000  Level FlightAware ADS-B
Sat 10:24:37 AM 59.2890 31.0380 328° Northwest 417 480 34,000  Level FlightAware ADS-B
Sat 10:25:29 AM 59.3680 30.9190 323° Northwest 415 478 34,000  Level FlightAware ADS-B
Sat 10:26:04 AM 59.4180 30.8410 322° Northwest 420 483 34,000  Level FlightAware ADS-B
Sat 10:26:38 AM 59.4720 30.7560 321° Northwest 421 484 34,000  Level FlightAware ADS-B
Sat 10:27:18 AM 59.5160 30.6550 311° West 395 455 34,000  Level FlightAware ADS-B
Sat 10:27:50 AM 59.5320 30.5470 286° West 379 436 34,000  Level FlightAware ADS-B
Sat 10:28:29 AM 59.5390 30.4050 276° West 380 437 34,000  Level FlightAware ADS-B
Sat 10:29:02 AM 59.5450 30.2940 276° West 379 436 34,000  Level FlightAware ADS-B
Sat 10:29:47 AM 59.5530 30.1460 276° West 377 434 34,000  Level FlightAware ADS-B
Sat 10:30:27 AM 59.5590 30.0070 275° West 377 434 34,000  Level FlightAware ADS-B
Sat 10:31:06 AM 59.5660 29.8650 276° West 380 437 34,000  Level FlightAware ADS-B
Sat 10:31:54 AM 59.5740 29.7030 276° West 382 440 34,000  Level FlightAware ADS-B
Sat 10:32:33 AM 59.5800 29.5650 275° West 386 444 34,000  Level FlightAware ADS-B
Sat 10:33:05 AM 59.5850 29.4540 275° West 388 447 34,000 94 Level FlightAware ADS-B
Sat 10:33:37 AM 59.5900 29.3470 275° West 386 444 34,100 486 Climbing FlightAware ADS-B
Sat 10:34:19 AM 59.5960 29.2030 275° West 378 435 34,600 742 Climbing FlightAware ADS-B
Sat 10:35:06 AM 59.6020 29.0420 274° West 373 429 35,200 675 Climbing FlightAware ADS-B
Sat 10:35:39 AM 59.6070 28.9330 275° West 374 430 35,500 560 Climbing FlightAware ADS-B
Sat 10:36:21 AM 59.6130 28.7920 275° West 378 435 35,900 357 Climbing FlightAware ADS-B
Sat 10:37:03 AM 59.6310 28.6460 284° West 390 449 36,000 75 Climbing FlightAware ADS-B
Sat 10:37:41 AM 59.6510 28.5130 287° West 400 460 36,000  Level FlightAware ADS-B
Sat 10:38:25 AM 59.6740 28.3550 286° West 406 467 36,000  Level FlightAware ADS-B
Sat 10:39:07 AM 59.6960 28.2040 286° West 406 467 36,000  Level FlightAware ADS-B
Sat 10:39:50 AM 59.7180 28.0480 286° West 404 465 36,000  Level FlightAware ADS-B
Sat 10:40:31 AM 59.7380 27.9070 286° West 404 465 36,000  Level FlightAware ADS-B
Sat 10:41:10 AM 59.7580 27.7620 285° West 405 466 36,000  Level FlightAware ADS-B
Sat 10:42:17 AM 59.7890 27.5370 285° West 406 467 36,000  Level FlightAware ADS-B
Sat 10:42:52 AM 59.8080 27.3950 285° West 407 468 36,000  Level FlightAware ADS-B
Sat 10:43:31 AM 59.8260 27.2640 285° West 408 470 36,000  Level FlightAware ADS-B
Sat 10:44:12 AM 59.8460 27.1150 285° West 408 470 36,000  Level FlightAware ADS-B
Sat 10:44:53 AM 59.8670 26.9570 285° West 409 471 36,000  Level FlightAware ADS-B
Sat 10:45:33 AM 59.8840 26.8250 284° West 410 472 36,000  Level FlightAware ADS-B
Sat 10:46:05 AM 59.9010 26.7000 285° West 409 471 36,000  Level FlightAware ADS-B
Sat 10:47:12 AM 59.9310 26.4580 284° West 411 473 36,000  Level FlightAware ADS-B
Sat 10:47:42 AM 59.9470 26.3500 287° West 413 475 36,000  Level FlightAware ADS-B
Sat 10:48:24 AM 59.9790 26.2060 294° West 418 481 36,000  Level FlightAware ADS-B
Sat 10:49:00 AM 60.0160 26.0850 301° West 421 484 36,000  Level FlightAware ADS-B
Sat 10:49:40 AM 60.0720 25.9700 314° West 436 502 36,000  Level FlightAware ADS-B
Sat 10:50:25 AM 60.1480 25.8760 328° Northwest 439 505 36,000  Level FlightAware ADS-B
Sat 10:50:57 AM 60.2040 25.8070 329° Northwest 440 506 36,000  Level FlightAware ADS-B
Sat 10:51:28 AM 60.2580 25.7380 328° Northwest 442 509 36,000  Level FlightAware ADS-B
Sat 10:52:09 AM 60.3310 25.6470 328° Northwest 445 512 36,000  Level FlightAware ADS-B
Sat 10:52:59 AM 60.4160 25.5390 328° Northwest 446 513 36,000  Level FlightAware ADS-B
Sat 10:53:48 AM 60.5000 25.4310 328° Northwest 445 512 36,000  Level FlightAware ADS-B
Sat 10:54:25 AM 60.5660 25.3470 328° Northwest 445 512 36,000  Level FlightAware ADS-B
Sat 10:55:14 AM 60.6500 25.2380 328° Northwest 445 512 36,000  Level FlightAware ADS-B
Sat 10:55:52 AM 60.7170 25.1510 328° Northwest 445 512 36,000  Level FlightAware ADS-B
Sat 10:56:38 AM 60.7960 25.0490 328° Northwest 443 510 36,000  Level FlightAware ADS-B
Sat 10:57:10 AM 60.8520 24.9750 327° Northwest 443 510 36,000  Level FlightAware ADS-B
Sat 10:57:50 AM 60.9190 24.8860 327° Northwest 443 510 36,000  Level FlightAware ADS-B
Sat 10:58:30 AM 60.9850 24.7990 327° Northwest 443 510 36,000  Level FlightAware ADS-B
Sat 10:58:58 AM 61.0350 24.7320 327° Northwest 444 511 36,000  Level FlightAware ADS-B
Sat 10:59:37 AM 61.1020 24.6430 327° Northwest 446 513 36,000  Level FlightAware ADS-B
Sat 11:00:21 AM 61.1820 24.5360 327° Northwest 448 516 36,000  Level FlightAware ADS-B
Sat 11:01:08 AM 61.2600 24.4310 327° Northwest 449 517 36,000  Level FlightAware ADS-B
Sat 11:01:45 AM 61.3240 24.3430 327° Northwest 447 514 36,000  Level FlightAware ADS-B
Sat 11:02:33 AM 61.4040 24.2330 327° Northwest 446 513 36,000  Level FlightAware ADS-B
Sat 11:03:08 AM 61.4660 24.1490 327° Northwest 446 513 36,000  Level FlightAware ADS-B
Sat 11:03:49 AM 61.5370 24.0500 326° Northwest 447 514 36,000  Level FlightAware ADS-B
Sat 11:04:37 AM 61.6180 23.9370 326° Northwest 447 514 36,000  Level FlightAware ADS-B
Sat 11:05:14 AM 61.6840 23.8450 327° Northwest 447 514 36,000  Level FlightAware ADS-B
Sat 11:05:46 AM 61.7380 23.7700 327° Northwest 446 513 36,000  Level FlightAware ADS-B
Sat 11:06:31 AM 61.8150 23.6610 326° Northwest 443 510 36,000  Level FlightAware ADS-B
Sat 11:07:04 AM 61.8710 23.5700 323° Northwest 440 506 36,000  Level FlightAware ADS-B
Sat 11:07:41 AM 61.9270 23.4690 320° Northwest 439 505 36,000  Level FlightAware ADS-B
Sat 11:08:26 AM 61.9930 23.3510 320° Northwest 439 505 36,000  Level FlightAware ADS-B
Sat 11:09:09 AM 62.0650 23.2240 320° Northwest 440 506 36,000  Level FlightAware ADS-B
Sat 11:09:42 AM 62.1150 23.1340 320° Northwest 442 509 36,000  Level FlightAware ADS-B
Sat 11:11:00 AM 62.2360 22.9180 320° Northwest 442 509 36,000  Level FlightAware ADS-B
Sat 11:11:39 AM 62.2840 22.8320 320° Northwest 441 507 36,000  Level FlightAware ADS-B
Sat 11:12:18 AM 62.3570 22.6990 320° Northwest 440 506 36,000  Level FlightAware ADS-B
Sat 11:13:01 AM 62.4240 22.5780 320° Northwest 439 505 36,000  Level FlightAware ADS-B
Sat 11:14:13 AM 62.5340 22.3750 320° Northwest 439 505 36,000  Level FlightAware ADS-B
Sat 11:15:01 AM 62.6090 22.2360 320° Northwest 441 507 36,000  Level FlightAware ADS-B
Sat 11:15:42 AM 62.6710 22.1200 319° Northwest 442 509 36,000  Level FlightAware ADS-B
Sat 11:16:31 AM 62.7510 21.9700 319° Northwest 442 509 36,000  Level FlightAware ADS-B
Sat 11:17:19 AM 62.8220 21.8360 319° Northwest 440 506 36,000  Level FlightAware ADS-B
Sat 11:18:03 AM 62.8910 21.7050 319° Northwest 440 506 36,000  Level FlightAware ADS-B
Sat 11:18:48 AM 62.9610 21.5720 319° Northwest 441 507 36,000  Level FlightAware ADS-B
Sat 11:19:28 AM 63.0210 21.4550 319° Northwest 440 506 36,000  Level FlightAware ADS-B
Sat 11:20:18 AM 63.0970 21.3070 319° Northwest 439 505 36,000  Level FlightAware ADS-B
Sat 11:20:48 AM 63.1420 21.2200 319° Northwest 439 505 36,000  Level FlightAware ADS-B
Sat 11:21:28 AM 63.2050 21.0980 319° Northwest 440 506 36,000  Level FlightAware ADS-B
Sat 11:22:03 AM 63.2570 20.9930 318° Northwest 441 507 36,000  Level FlightAware ADS-B
Sat 11:22:43 AM 63.3190 20.8720 319° Northwest 442 509 36,000  Level FlightAware ADS-B
Sat 11:23:28 AM 63.3850 20.7390 318° Northwest 442 509 36,000  Level FlightAware ADS-B
Sat 11:24:03 AM 63.4390 20.6310 318° Northwest 441 507 36,000  Level FlightAware ADS-B
Sat 11:24:38 AM 63.4920 20.5250 318° Northwest 441 507 36,000  Level FlightAware ADS-B
Sat 11:25:14 AM 63.5450 20.4160 318° Northwest 440 506 36,000  Level FlightAware ADS-B
Sat 11:26:08 AM 63.6270 20.2490 318° Northwest 439 505 36,000  Level FlightAware ADS-B
Sat 11:26:38 AM 63.6700 20.1610 318° Northwest 438 504 36,000  Level FlightAware ADS-B
Sat 11:27:13 AM 63.7250 20.0480 318° Northwest 438 504 36,000  Level FlightAware ADS-B
Sat 11:27:48 AM 63.7750 19.9430 317° Northwest 438 504 36,000  Level FlightAware ADS-B
Sat 11:28:28 AM 63.8350 19.8190 318° Northwest 438 504 36,000  Level FlightAware ADS-B
Sat 11:29:03 AM 63.8870 19.7100 317° Northwest 438 504 36,000  Level FlightAware ADS-B
Sat 11:29:33 AM 63.9300 19.6190 317° Northwest 438 504 36,000  Level FlightAware ADS-B
Sat 11:30:38 AM 64.0280 19.4110 317° Northwest 439 505 36,000  Level FlightAware ADS-B
Sat 11:31:29 AM 64.0980 19.2610 317° Northwest 440 506 36,000  Level FlightAware ADS-B
Sat 11:32:03 AM 64.1540 19.1400 317° Northwest 441 507 36,000  Level FlightAware ADS-B
Sat 11:32:38 AM 64.2020 19.0350 316° Northwest 441 507 36,000  Level FlightAware ADS-B
Sat 11:33:28 AM 64.2800 18.8650 317° Northwest 439 505 36,000  Level FlightAware ADS-B
Sat 11:34:04 AM 64.3310 18.7530 316° Northwest 438 504 36,000  Level FlightAware ADS-B
Sat 11:34:44 AM 64.3890 18.6240 316° Northwest 439 505 36,000  Level FlightAware ADS-B
Sat 11:35:28 AM 64.4540 18.4800 316° Northwest 441 507 36,000  Level FlightAware ADS-B
Sat 11:36:04 AM 64.5070 18.3610 316° Northwest 442 509 36,000  Level FlightAware ADS-B
Sat 11:36:42 AM 64.5620 18.2380 316° Northwest 444 511 36,000  Level FlightAware ADS-B
Sat 11:37:16 AM 64.6130 18.1220 316° Northwest 445 512 36,000  Level FlightAware ADS-B
Sat 11:37:54 AM 64.6700 17.9930 316° Northwest 444 511 36,000  Level FlightAware ADS-B
Sat 11:38:34 AM 64.7270 17.8630 316° Northwest 442 509 36,000  Level FlightAware ADS-B
Sat 11:39:18 AM 64.7880 17.7200 315° West 442 509 36,000  Level FlightAware ADS-B
Sat 11:39:50 AM 64.8370 17.6070 316° Northwest 443 510 36,000  Level FlightAware ADS-B
Sat 11:40:58 AM 64.9350 17.3790 315° West 442 509 36,000  Level FlightAware ADS-B
Sat 11:41:38 AM 64.9940 17.2390 315° West 440 506 36,000  Level FlightAware ADS-B
Sat 11:42:12 AM 65.0420 17.1250 315° West 440 506 36,000  Level FlightAware ADS-B
Sat 11:42:52 AM 65.0990 16.9870 314° West 441 507 36,000  Level FlightAware ADS-B
Sat 11:43:30 AM 65.1540 16.8560 315° West 441 507 36,000  Level FlightAware ADS-B
Sat 11:44:10 AM 65.2100 16.7200 315° West 442 509 36,000  Level FlightAware ADS-B
Sat 11:45:02 AM 65.2850 16.5380 315° West 441 507 36,000  Level FlightAware ADS-B
Sat 11:45:42 AM 65.3420 16.3970 314° West 442 509 36,000  Level FlightAware ADS-B
Sat 11:46:28 AM 65.4070 16.2370 314° West 442 509 36,000  Level FlightAware ADS-B
Sat 11:47:04 AM 65.4590 16.1080 314° West 442 509 36,000  Level FlightAware ADS-B
Sat 11:47:44 AM 65.5150 15.9670 314° West 442 509 36,000  Level FlightAware ADS-B
Sat 11:48:25 AM 65.5720 15.8220 314° West 442 509 36,000  Level FlightAware ADS-B
Sat 11:49:13 AM 65.6390 15.6520 314° West 442 509 36,000  Level FlightAware ADS-B
Sat 11:49:51 AM 65.6920 15.5160 313° West 441 507 36,000  Level FlightAware ADS-B
Sat 11:50:27 AM 65.7420 15.3880 314° West 440 506 36,000  Level FlightAware ADS-B
Sat 11:50:53 AM 65.7780 15.2950 313° West 440 506 36,000  Level FlightAware ADS-B
Sat 11:51:31 AM 65.8310 15.1580 313° West 439 505 36,000  Level FlightAware ADS-B
Sat 11:52:08 AM 65.8810 15.0260 313° West 439 505 36,000  Level FlightAware ADS-B
Sat 11:52:46 AM 65.9340 14.8850 313° West 440 506 36,000  Level FlightAware ADS-B
Sat 11:53:28 AM 65.9920 14.7320 313° West 440 506 36,000  Level FlightAware ADS-B
Sat 11:54:12 AM 66.0530 14.5670 312° West 442 509 36,000  Level FlightAware ADS-B
Sat 11:54:58 AM 66.1170 14.3960 313° West 443 510 36,000  Level FlightAware ADS-B
Sat 11:55:33 AM 66.1610 14.2750 312° West 441 507 36,000  Level FlightAware ADS-B
Sat 11:56:10 AM 66.2130 14.1360 313° West 439 505 36,000  Level FlightAware ADS-B
Sat 11:56:54 AM 66.2650 13.9920 312° West 439 505 36,000  Level FlightAware ADS-B
Sat 11:57:34 AM 66.3220 13.8330 312° West 439 505 36,000  Level FlightAware ADS-B
Sat 11:58:13 AM 66.3810 13.6700 312° West 437 503 36,000  Level FlightAware ADS-B
Sat 11:58:51 AM 66.4280 13.5360 311° West 436 502 36,000  Level FlightAware ADS-B
Sat 11:59:15 AM 66.4640 13.4360 312° West 436 502 36,000  Level FlightAware ADS-B
Sat 11:59:54 AM 66.5150 13.2890 311° West 435 501 36,000  Level FlightAware ADS-B
Sat 12:00:25 PM 66.5540 13.1780 311° West 429 494 36,000  Level FlightAware ADS-B
Sat 12:00:59 PM 66.6010 13.0440 311° West 427 491 36,000  Level FlightAware ADS-B
Sat 12:01:29 PM 66.6410 12.9280 311° West 426 490 36,000  Level FlightAware ADS-B
Sat 12:02:40 PM 66.7320 12.6620 311° West 425 489 36,000  Level FlightAware ADS-B
Sat 12:03:18 PM 66.7810 12.5170 311° West 424 488 36,000  Level FlightAware ADS-B
Sat 12:03:53 PM 66.8260 12.3830 311° West 423 487 36,000  Level FlightAware ADS-B
Sat 12:04:28 PM 66.8710 12.2500 311° West 429 494 36,000  Level FlightAware ADS-B
Sat 12:05:02 PM 66.9150 12.1190 311° West 428 493 36,000  Level FlightAware ADS-B
Sat 12:05:37 PM 66.9580 11.9890 310° West 427 491 36,000  Level FlightAware ADS-B
Sat 12:06:14 PM 67.0010 11.8580 310° West 427 491 36,000  Level FlightAware ADS-B
Sat 12:06:55 PM 67.0570 11.6860 310° West 427 491 36,000  Level FlightAware ADS-B
Sat 12:07:40 PM 67.1030 11.5420 309° West 427 491 36,000  Level FlightAware ADS-B
Sat 12:08:16 PM 67.1410 11.4210 309° West 427 491 36,000  Level FlightAware ADS-B
Sat 12:08:38 PM 67.1860 11.2890 311° West 426 490 36,000  Level FlightAware ADS-B
Sat 12:09:28 PM 67.2380 11.1210 309° West 426 490 36,000  Level FlightAware ADS-B
Sat 12:10:16 PM 67.2890 10.9590 309° West 426 490 36,000  Level FlightAware ADS-B
Sat 12:10:53 PM 67.3280 10.8340 309° West 426 490 36,000  Level FlightAware ADS-B
Sat 12:11:32 PM 67.3690 10.7020 309° West 426 490 36,000  Level FlightAware ADS-B
Sat 12:12:20 PM 67.4190 10.5390 309° West 426 490 36,000  Level FlightAware ADS-B
Sat 12:12:57 PM 67.4580 10.4140 309° West 426 490 36,000  Level FlightAware ADS-B
Sat 12:13:34 PM 67.4970 10.2880 309° West 426 490 36,000  Level FlightAware ADS-B
Sat 12:14:22 PM 67.5480 10.1250 309° West 426 490 36,000  Level FlightAware ADS-B
Sat 12:14:58 PM 67.5860 10.0020 309° West 426 490 36,000  Level FlightAware ADS-B
Sat 12:15:34 PM 67.6240 9.8790 309° West 426 490 36,000  Level FlightAware ADS-B
Sat 12:16:12 PM 67.6640 9.7480 309° West 426 490 36,000  Level FlightAware ADS-B
Sat 12:16:49 PM 67.7030 9.6220 309° West 426 490 36,000  Level FlightAware ADS-B
Sat 12:17:13 PM 67.7280 9.5390 308° West 426 490 36,000  Level FlightAware ADS-B
Sat 12:17:50 PM 67.7670 9.4120 309° West 426 490 36,000  Level FlightAware ADS-B
Sat 12:18:36 PM 67.8160 9.2530 309° West 426 490 36,000  Level FlightAware ADS-B
Sat 12:21:00 PM 67.8674 8.4999 281° West  Level Estimated
Sat 12:22:00 PM 67.8877 8.1851 280° West  Level Estimated
Sat 12:23:00 PM 67.9075 7.8698 280° West  Level Estimated
Sat 12:24:00 PM 67.9267 7.5540 279° West  Level Estimated
Sat 12:25:00 PM 67.9453 7.2376 279° West  Level Estimated
Sat 12:26:00 PM 67.9632 6.9208 279° West  Level Estimated
Sat 12:27:00 PM 67.9806 6.6034 278° West  Level Estimated
Sat 12:28:00 PM 67.9973 6.2856 278° West  Level Estimated
Sat 12:29:00 PM 68.0134 5.9674 278° West  Level Estimated
Sat 12:30:00 PM 68.0289 5.6487 278° West  Level Estimated
Sat 12:31:00 PM 68.0438 5.3296 277° West  Level Estimated
Sat 12:32:00 PM 68.0581 5.0101 277° West  Level Estimated
Sat 12:33:00 PM 68.0717 4.6902 277° West  Level Estimated
Sat 12:34:00 PM 68.0847 4.3700 276° West  Level Estimated
Sat 12:35:00 PM 68.0972 4.0493 276° West  Level Estimated
Sat 12:36:00 PM 68.1089 3.7284 276° West  Level Estimated
Sat 12:37:00 PM 68.1201 3.4071 275° West  Level Estimated
Sat 12:38:00 PM 68.1307 3.0855 275° West  Level Estimated
Sat 12:39:00 PM 68.1406 2.7637 275° West  Level Estimated
Sat 12:40:00 PM 68.1499 2.4416 275° West  Level Estimated
Sat 12:41:00 PM 68.1585 2.1192 274° West  Level Estimated
Sat 12:42:00 PM 68.1666 1.7966 274° West  Level Estimated
Sat 12:43:00 PM 68.1740 1.4737 274° West  Level Estimated
Sat 12:44:00 PM 68.1808 1.1507 273° West  Level Estimated
Sat 12:45:00 PM 68.1870 0.8274 273° West  Level Estimated
Sat 12:46:00 PM 68.1925 0.5041 273° West  Level Estimated
Sat 12:47:00 PM 68.1974 0.1805 272° West  Level Estimated
Sat 12:48:00 PM 68.2017 -0.1431 272° West  Level Estimated
Sat 12:49:00 PM 68.2053 -0.4669 272° West  Level Estimated
Sat 12:50:00 PM 68.2083 -0.7908 272° West  Level Estimated
Sat 12:51:00 PM 68.2107 -1.1147 271° West  Level Estimated
Sat 12:52:00 PM 68.2124 -1.4387 271° West  Level Estimated
Sat 12:53:00 PM 68.2135 -1.7627 271° West  Level Estimated
Sat 12:54:00 PM 68.2140 -2.0868 270° West  Level Estimated
Sat 12:55:00 PM 68.2139 -2.4109 270° West  Level Estimated
Sat 12:56:00 PM 68.2131 -2.7349 270° West  Level Estimated
Sat 12:57:00 PM 68.2117 -3.0589 269° West  Level Estimated
Sat 12:58:00 PM 68.2096 -3.3829 269° West  Level Estimated
Sat 12:59:00 PM 68.2070 -3.7068 269° West  Level Estimated
Sat 01:00:00 PM 68.2037 -4.0306 269° West  Level Estimated
Sat 01:01:00 PM 68.1997 -4.3544 268° West  Level Estimated
Sat 01:02:00 PM 68.1951 -4.6779 268° West  Level Estimated
Sat 01:03:00 PM 68.1899 -5.0014 268° West  Level Estimated
Sat 01:04:00 PM 68.1841 -5.3247 267° West  Level Estimated
Sat 01:05:00 PM 68.1777 -5.6479 267° West  Level Estimated
Sat 01:06:00 PM 68.1706 -5.9708 267° West  Level Estimated
Sat 01:07:00 PM 68.1628 -6.2935 266° West  Level Estimated
Sat 01:08:00 PM 68.1545 -6.6160 266° West  Level Estimated
Sat 01:09:00 PM 68.1455 -6.9383 266° West  Level Estimated
Sat 01:10:00 PM 68.1359 -7.2603 266° West  Level Estimated
Sat 01:11:00 PM 68.1257 -7.5820 265° West  Level Estimated
Sat 01:12:00 PM 68.1149 -7.9035 265° West  Level Estimated
Sat 01:13:00 PM 68.1034 -8.2246 265° West  Level Estimated
Sat 01:14:00 PM 68.0913 -8.5454 264° West  Level Estimated
Sat 01:15:00 PM 68.0786 -8.8658 264° West  Level Estimated
Sat 01:16:00 PM 68.0653 -9.1859 264° West  Level Estimated
Sat 01:17:00 PM 68.0513 -9.5056 263° West  Level Estimated
Sat 01:18:00 PM 68.0368 -9.8249 263° West  Level Estimated
Sat 01:19:00 PM 68.0216 -10.1438 263° West  Level Estimated
Sat 01:20:00 PM 68.0058 -10.4623 263° West  Level Estimated
Sat 01:21:00 PM 67.9894 -10.7803 262° West  Level Estimated
Sat 01:22:00 PM 67.9724 -11.0979 262° West  Level Estimated
Sat 01:23:00 PM 67.9547 -11.4150 262° West  Level Estimated
Sat 01:24:00 PM 67.9365 -11.7316 261° West  Level Estimated
Sat 01:25:00 PM 67.9176 -12.0478 261° West  Level Estimated
Sat 01:26:00 PM 67.8982 -12.3633 261° West  Level Estimated
Sat 01:27:00 PM 67.8781 -12.6784 261° West  Level Estimated
Sat 01:28:00 PM 67.8575 -12.9929 260° West  Level Estimated
Sat 01:29:00 PM 67.8362 -13.3068 260° West  Level Estimated
Sat 01:30:00 PM 67.8143 -13.6202 260° West  Level Estimated
Sat 01:31:00 PM 67.7918 -13.9329 259° West  Level Estimated
Sat 01:32:00 PM 67.7688 -14.2451 259° West  Level Estimated
Sat 01:33:00 PM 67.7451 -14.5566 259° West  Level Estimated
Sat 01:34:00 PM 67.7209 -14.8675 259° West  Level Estimated
Sat 01:35:00 PM 67.6960 -15.1777 258° West  Level Estimated
Sat 01:36:00 PM 67.6706 -15.4873 258° West  Level Estimated
Sat 01:37:00 PM 67.6446 -15.7962 258° West  Level Estimated
Sat 01:38:00 PM 67.6180 -16.1045 257° West  Level Estimated
Sat 01:39:00 PM 67.5908 -16.4120 257° West  Level Estimated
Sat 01:40:00 PM 67.5630 -16.7188 257° West  Level Estimated
Sat 01:41:00 PM 67.5347 -17.0248 257° West  Level Estimated
Sat 01:42:00 PM 67.5058 -17.3302 256° West  Level Estimated
Sat 01:43:00 PM 67.4763 -17.6348 256° West  Level Estimated
Sat 01:44:00 PM 67.4462 -17.9386 256° West  Level Estimated
Sat 01:45:00 PM 67.4156 -18.2416 255° West  Level Estimated
Sat 01:46:00 PM 67.3844 -18.5439 255° West  Level Estimated
Sat 01:47:00 PM 67.3526 -18.8454 255° West  Level Estimated
Sat 01:48:00 PM 67.3203 -19.1460 255° West  Level Estimated
Sat 01:49:00 PM 67.2874 -19.4459 254° West  Level Estimated
Sat 01:50:00 PM 67.2540 -19.7449 254° West  Level Estimated
Sat 01:51:00 PM 67.2200 -20.0430 254° West  Level Estimated
Sat 01:52:00 PM 67.1854 -20.3404 253° West  Level Estimated
Sat 01:53:00 PM 67.1504 -20.6368 253° West  Level Estimated
Sat 01:54:00 PM 67.1147 -20.9324 253° West  Level Estimated
Sat 01:55:00 PM 67.0785 -21.2272 253° West  Level Estimated
Sat 01:56:00 PM 67.0418 -21.5210 252° West  Level Estimated
Sat 01:57:00 PM 67.0045 -21.8139 252° West  Level Estimated
Sat 01:58:00 PM 66.9667 -22.1060 252° West  Level Estimated
Sat 01:59:00 PM 66.9284 -22.3971 252° West  Level Estimated
Sat 02:00:00 PM 66.8895 -22.6873 251° West  Level Estimated
Sat 02:01:00 PM 66.8501 -22.9766 251° West  Level Estimated
Sat 02:02:00 PM 66.8101 -23.2649 251° West  Level Estimated
Sat 02:03:00 PM 66.7697 -23.5523 250° West  Level Estimated
Sat 02:04:00 PM 66.7287 -23.8388 250° West  Level Estimated
Sat 02:05:00 PM 66.6872 -24.1243 250° West  Level Estimated
Sat 02:06:00 PM 66.6452 -24.4088 250° West  Level Estimated
Sat 02:07:00 PM 66.6027 -24.6924 249° West  Level Estimated
Sat 02:08:00 PM 66.5597 -24.9750 249° West  Level Estimated
Sat 02:09:00 PM 66.5161 -25.2566 249° West  Level Estimated
Sat 02:10:00 PM 66.4721 -25.5372 249° West  Level Estimated
Sat 02:11:00 PM 66.4275 -25.8168 248° West  Level Estimated
Sat 02:12:00 PM 66.3825 -26.0954 248° West  Level Estimated
Sat 02:13:00 PM 66.3370 -26.3730 248° West  Level Estimated
Sat 02:14:00 PM 66.2909 -26.6496 248° West  Level Estimated
Sat 02:15:00 PM 66.2444 -26.9252 247° West  Level Estimated
Sat 02:16:00 PM 66.1974 -27.1998 247° West  Level Estimated
Sat 02:17:00 PM 66.1499 -27.4733 247° West  Level Estimated
Sat 02:18:00 PM 66.1019 -27.7458 247° West  Level Estimated
Sat 02:19:00 PM 66.0535 -28.0173 246° West  Level Estimated
Sat 02:20:00 PM 66.0046 -28.2878 246° West  Level Estimated
Sat 02:21:00 PM 65.9552 -28.5572 246° West  Level Estimated
Sat 02:22:00 PM 65.9053 -28.8255 246° West  Level Estimated
Sat 02:23:00 PM 65.8550 -29.0928 245° Southwest  Level Estimated
Sat 02:24:00 PM 65.8042 -29.3591 245° Southwest  Level Estimated
Sat 02:25:00 PM 65.7529 -29.6243 245° Southwest  Level Estimated
Sat 02:26:00 PM 65.7012 -29.8885 245° Southwest  Level Estimated
Sat 02:27:00 PM 65.6490 -30.1516 244° Southwest  Level Estimated
Sat 02:28:00 PM 65.5964 -30.4136 244° Southwest  Level Estimated
Sat 02:29:00 PM 65.5433 -30.6745 244° Southwest  Level Estimated
Sat 02:30:00 PM 65.4898 -30.9345 244° Southwest  Level Estimated
Sat 02:31:00 PM 65.4358 -31.1933 243° Southwest  Level Estimated
Sat 02:32:00 PM 65.3814 -31.4511 243° Southwest  Level Estimated
Sat 02:33:00 PM 65.3266 -31.7078 243° Southwest  Level Estimated
Sat 02:34:00 PM 65.2713 -31.9634 243° Southwest  Level Estimated
Sat 02:35:00 PM 65.2156 -32.2179 243° Southwest  Level Estimated
Sat 02:36:00 PM 65.1595 -32.4714 242° Southwest  Level Estimated
Sat 02:37:00 PM 65.1029 -32.7238 242° Southwest  Level Estimated
Sat 02:38:00 PM 65.0460 -32.9752 242° Southwest  Level Estimated
Sat 02:39:00 PM 64.9885 -33.2254 242° Southwest  Level Estimated
Sat 02:40:00 PM 64.9307 -33.4746 241° Southwest  Level Estimated
Sat 02:41:00 PM 64.8725 -33.7227 241° Southwest  Level Estimated
Sat 02:42:00 PM 64.8139 -33.9697 241° Southwest  Level Estimated
Sat 02:43:00 PM 64.7548 -34.2156 241° Southwest  Level Estimated
Sat 02:44:00 PM 64.6954 -34.4605 240° Southwest  Level Estimated
Sat 02:45:00 PM 64.6355 -34.7043 240° Southwest  Level Estimated
Sat 02:46:00 PM 64.5752 -34.9470 240° Southwest  Level Estimated
Sat 02:47:00 PM 64.5146 -35.1887 240° Southwest  Level Estimated
Sat 02:48:00 PM 64.4535 -35.4292 240° Southwest  Level Estimated
Sat 02:49:00 PM 64.3921 -35.6687 239° Southwest  Level Estimated
Sat 02:50:00 PM 64.3303 -35.9072 239° Southwest  Level Estimated
Sat 02:51:00 PM 64.2680 -36.1445 239° Southwest  Level Estimated
Sat 02:52:00 PM 64.2054 -36.3808 239° Southwest  Level Estimated
Sat 02:53:00 PM 64.1424 -36.6160 239° Southwest  Level Estimated
Sat 02:54:00 PM 64.0791 -36.8501 238° Southwest  Level Estimated
Sat 02:55:00 PM 64.0154 -37.0832 238° Southwest  Level Estimated
Sat 02:56:00 PM 63.9513 -37.3152 238° Southwest  Level Estimated
Sat 02:57:00 PM 63.8868 -37.5462 238° Southwest  Level Estimated
Sat 02:58:00 PM 63.8219 -37.7761 237° Southwest  Level Estimated
Sat 02:59:00 PM 63.7567 -38.0049 237° Southwest  Level Estimated
Sat 03:00:00 PM 63.6912 -38.2327 237° Southwest  Level Estimated
Sat 03:01:00 PM 63.6253 -38.4594 237° Southwest  Level Estimated
Sat 03:02:00 PM 63.5590 -38.6851 237° Southwest  Level Estimated
Sat 03:03:00 PM 63.4924 -38.9097 236° Southwest  Level Estimated
Sat 03:03:16 PM 67.4210 -44.5440 236° Southwest 450 518 36,000  Level FlightAware ADS-B
Sat 03:03:53 PM 67.3680 -44.6820 225° Southwest 449 517 36,000  Level FlightAware ADS-B
Sat 03:04:00 PM 63.4254 -39.1332 236° Southwest  Level Estimated
Sat 03:04:47 PM 67.2880 -44.8870 225° Southwest 446 513 36,000  Level FlightAware ADS-B
Sat 03:05:47 PM 67.2010 -45.1060 224° Southwest 443 510 36,000  Level FlightAware ADS-B
Sat 03:06:27 PM 67.1430 -45.2520 224° Southwest 441 507 36,000  Level FlightAware ADS-B
Sat 03:07:09 PM 67.0800 -45.4080 224° Southwest 439 505 36,000  Level FlightAware ADS-B
Sat 03:07:41 PM 67.0340 -45.5210 224° Southwest 437 503 36,000  Level FlightAware ADS-B
Sat 03:08:13 PM 66.9870 -45.6370 224° Southwest 434 499 36,000  Level FlightAware ADS-B
Sat 03:09:09 PM 66.9070 -45.8330 224° Southwest 430 495 36,000  Level FlightAware ADS-B
Sat 03:09:31 PM 66.8750 -45.9100 223° Southwest 428 493 36,000  Level FlightAware ADS-B
Sat 03:10:11 PM 66.8190 -46.0450 224° Southwest 427 491 36,000  Level FlightAware ADS-B
Sat 03:11:05 PM 66.7410 -46.2310 223° Southwest 425 489 36,000  Level FlightAware ADS-B
Sat 03:12:03 PM 66.6580 -46.4280 223° Southwest 426 490 36,000  Level FlightAware ADS-B
Sat 03:12:49 PM 66.5920 -46.5830 223° Southwest 424 488 36,000  Level FlightAware ADS-B
Sat 03:13:53 PM 66.5030 -46.7910 223° Southwest 423 487 36,000  Level FlightAware ADS-B
Sat 03:14:51 PM 66.4290 -46.9570 222° Southwest 423 487 36,000  Level FlightAware ADS-B
Sat 03:15:39 PM 66.3700 -47.0910 222° Southwest 423 487 36,000  Level FlightAware ADS-B
Sat 03:16:27 PM 66.3100 -47.2240 222° Southwest 423 487 36,000  Level FlightAware ADS-B
Sat 03:17:03 PM 66.2660 -47.3240 222° Southwest 423 487 36,000  Level FlightAware ADS-B
Sat 03:18:03 PM 66.1920 -47.4890 222° Southwest 423 487 36,000  Level FlightAware ADS-B
Sat 03:18:40 PM 66.1460 -47.5910 222° Southwest 423 487 36,000  Level FlightAware ADS-B
Sat 03:19:40 PM 66.0720 -47.7560 222° Southwest 423 487 36,000  Level FlightAware ADS-B
Sat 03:20:16 PM 66.0270 -47.8550 222° Southwest 423 487 36,000  Level FlightAware ADS-B
Sat 03:20:53 PM 65.9820 -47.9560 222° Southwest 423 487 36,000  Level FlightAware ADS-B
Sat 03:21:17 PM 65.9520 -48.0210 221° Southwest 423 487 36,000  Level FlightAware ADS-B
Sat 03:22:17 PM 65.8780 -48.1850 222° Southwest 423 487 36,000  Level FlightAware ADS-B
Sat 03:22:53 PM 65.8330 -48.2830 222° Southwest 423 487 36,000  Level FlightAware ADS-B
Sat 03:23:29 PM 65.7890 -48.3810 222° Southwest 423 487 36,000  Level FlightAware ADS-B
Sat 03:23:53 PM 65.7590 -48.4460 222° Southwest 423 487 36,000  Level FlightAware ADS-B
Sat 03:27:00 PM 65.4873 -49.0716 224° Southwest  Level Estimated
Sat 03:28:00 PM 65.3995 -49.2696 223° Southwest  Level Estimated
Sat 03:29:00 PM 65.3115 -49.4663 223° Southwest  Level Estimated
Sat 03:30:00 PM 65.2233 -49.6616 223° Southwest  Level Estimated
Sat 03:31:00 PM 65.1348 -49.8557 223° Southwest  Level Estimated
Sat 03:32:00 PM 65.0461 -50.0484 223° Southwest  Level Estimated
Sat 03:33:00 PM 64.9571 -50.2399 222° Southwest  Level Estimated
Sat 03:34:00 PM 64.8679 -50.4301 222° Southwest  Level Estimated
Sat 03:35:00 PM 64.7784 -50.6190 222° Southwest  Level Estimated
Sat 03:35:36 PM 64.7290 -51.1120 222° Southwest 426 490 36,000  Level FlightAware ADS-B
Sat 03:36:00 PM 64.6887 -50.8067 222° Southwest  Level Estimated
Sat 03:36:10 PM 64.6950 -51.2470 240° Southwest 427 491 36,000  Level FlightAware ADS-B
Sat 03:36:46 PM 64.6580 -51.3950 240° Southwest 428 493 36,000  Level FlightAware ADS-B
Sat 03:37:21 PM 64.6220 -51.5360 239° Southwest 429 494 36,000  Level FlightAware ADS-B
Sat 03:37:55 PM 64.5880 -51.6710 240° Southwest 428 493 36,000  Level FlightAware ADS-B
Sat 03:38:35 PM 64.5470 -51.8290 239° Southwest 428 493 36,000  Level FlightAware ADS-B
Sat 03:39:06 PM 64.5160 -51.9480 239° Southwest 429 494 36,000  Level FlightAware ADS-B
Sat 03:40:07 PM 64.4550 -52.1830 239° Southwest 427 491 36,000  Level FlightAware ADS-B
Sat 03:40:42 PM 64.4180 -52.3240 239° Southwest 426 490 36,000  Level FlightAware ADS-B
Sat 03:41:22 PM 64.3770 -52.4770 238° Southwest 427 491 36,000  Level FlightAware ADS-B
Sat 03:41:54 PM 64.3440 -52.5990 238° Southwest 427 491 36,000  Level FlightAware ADS-B
Sat 03:42:25 PM 64.3110 -52.7220 238° Southwest 427 491 36,000  Level FlightAware ADS-B
Sat 03:42:58 PM 64.2790 -52.8420 238° Southwest 426 490 36,000  Level FlightAware ADS-B
Sat 03:43:39 PM 64.2400 -52.9850 238° Southwest 426 490 36,000  Level FlightAware ADS-B
Sat 03:44:35 PM 64.1830 -53.1900 238° Southwest 425 489 36,000  Level FlightAware ADS-B
Sat 03:45:20 PM 64.1330 -53.3760 238° Southwest 423 487 36,000  Level FlightAware ADS-B
Sat 03:46:14 PM 64.0730 -53.5910 238° Southwest 422 486 36,000  Level FlightAware ADS-B
Sat 03:46:52 PM 64.0390 -53.7120 237° Southwest 422 486 36,000  Level FlightAware ADS-B
Sat 03:47:28 PM 64.0060 -53.8260 237° Southwest 422 486 36,000  Level FlightAware ADS-B
Sat 03:48:04 PM 63.9730 -53.9410 237° Southwest 422 486 36,000  Level FlightAware ADS-B
Sat 03:48:40 PM 63.9410 -54.0550 237° Southwest 422 486 36,000  Level FlightAware ADS-B
Sat 03:49:16 PM 63.9080 -54.1690 237° Southwest 422 486 36,000  Level FlightAware ADS-B
Sat 03:49:40 PM 63.8870 -54.2450 238° Southwest 422 486 36,000  Level FlightAware ADS-B
Sat 03:50:19 PM 63.8510 -54.3680 236° Southwest 422 486 36,000  Level FlightAware ADS-B
Sat 03:50:56 PM 63.8180 -54.4840 237° Southwest 422 486 36,000  Level FlightAware ADS-B
Sat 03:51:54 PM 63.7650 -54.6670 237° Southwest 422 486 36,000  Level FlightAware ADS-B
Sat 03:52:31 PM 63.7320 -54.7840 238° Southwest 422 486 36,000  Level FlightAware ADS-B
Sat 03:53:05 PM 63.7010 -54.8900 237° Southwest 422 486 36,000  Level FlightAware ADS-B
Sat 03:53:53 PM 63.6580 -55.0410 237° Southwest 422 486 36,000  Level FlightAware ADS-B
Sat 03:54:29 PM 63.6250 -55.1540 237° Southwest 422 486 36,000  Level FlightAware ADS-B
Sat 03:55:06 PM 63.5920 -55.2700 237° Southwest 422 486 36,000  Level FlightAware ADS-B
Sat 03:55:43 PM 63.5580 -55.3850 236° Southwest 422 486 36,000  Level FlightAware ADS-B
Sat 03:56:07 PM 63.5370 -55.4600 238° Southwest 422 486 36,000  Level FlightAware ADS-B
Sat 03:57:29 PM 63.3667 -56.0000 235° Southwest 430 495 36,000  Level Gander Center
Sat 03:58:29 PM 63.3000 -56.2000 233° Southwest 420 483 36,000  Level Gander Center
Sat 03:59:00 PM 63.3736 -55.9358 236° Southwest  Level FlightAware Approximate
Sat 03:59:29 PM 63.2333 -56.4333 238° Southwest 440 506 36,000  Level Gander Center
Sat 04:00:00 PM 63.3208 -56.1059 235° Southwest  Level FlightAware Approximate
Sat 04:00:29 PM 63.1667 -56.6167 231° Southwest 430 495 36,000  Level Gander Center
Sat 04:01:00 PM 63.2677 -56.2753 235° Southwest  Level FlightAware Approximate
Sat 04:01:29 PM 63.1000 -56.8500 238° Southwest 430 495 36,000  Level Gander Center
Sat 04:02:00 PM 63.2144 -56.4442 235° Southwest  Level FlightAware Approximate
Sat 04:02:29 PM 63.0333 -57.0500 234° Southwest 430 495 36,000  Level Gander Center
Sat 04:03:29 PM 62.9667 -57.2667 236° Southwest 440 506 36,000  Level Gander Center
Sat 04:04:29 PM 62.8833 -57.4667 228° Southwest 450 518 36,000  Level Gander Center
Sat 04:05:29 PM 62.8167 -57.7333 241° Southwest 440 506 36,000  Level Gander Center
Sat 04:07:00 PM 62.7198 -58.0142 233° Southwest  Level FlightAware Approximate
Sat 04:13:05 PM 62.2667 -59.2667 231° Southwest 370 426 36,000  Level Montreal Center
Sat 04:14:00 PM 62.3232 -59.1297 233° Southwest  Level FlightAware Approximate
Sat 04:14:05 PM 62.1833 -59.4333 223° Southwest 420 483 36,000  Level Montreal Center
Sat 04:15:00 PM 62.2659 -59.2866 232° Southwest  Level FlightAware Approximate
Sat 04:15:05 PM 62.1000 -59.6167 226° Southwest 430 495 36,000  Level Montreal Center
Sat 04:16:00 PM 62.2083 -59.4430 232° Southwest  Level FlightAware Approximate
Sat 04:16:05 PM 62.0333 -59.8333 237° Southwest 440 506 36,000  Level Montreal Center
Sat 04:17:00 PM 62.1506 -59.5987 232° Southwest  Level FlightAware Approximate
Sat 04:17:05 PM 61.9500 -60.0333 229° Southwest 440 506 36,000  Level Montreal Center
Sat 04:18:00 PM 62.0927 -59.7539 231° Southwest  Level FlightAware Approximate
Sat 04:18:05 PM 61.8667 -60.2167 226° Southwest 440 506 36,000  Level Montreal Center
Sat 04:19:05 PM 61.7667 -60.3667 215° Southwest 440 506 36,000  Level Montreal Center
Sat 04:20:05 PM 61.6833 -60.5333 224° Southwest 430 495 36,000  Level Montreal Center
Sat 04:21:05 PM 61.5833 -60.7167 221° Southwest 450 518 36,000  Level Montreal Center
Sat 04:22:05 PM 61.4833 -60.8667 216° Southwest 450 518 36,000  Level Montreal Center
Sat 04:23:05 PM 61.3833 -61.0167 216° Southwest 440 506 36,000  Level Montreal Center
Sat 04:24:05 PM 61.3000 -61.2000 227° Southwest 440 506 36,000  Level Montreal Center
Sat 04:25:05 PM 61.2000 -61.3833 221° Southwest 450 518 36,000  Level Montreal Center
Sat 04:26:05 PM 61.1167 -61.5333 221° Southwest 440 506 36,000  Level Montreal Center
Sat 04:27:05 PM 61.0167 -61.7167 222° Southwest 440 506 36,000  Level Montreal Center
Sat 04:28:05 PM 60.9167 -61.9000 222° Southwest 450 518 36,000  Level Montreal Center
Sat 04:29:05 PM 60.8333 -62.0500 221° Southwest 450 518 36,000  Level Montreal Center
Sat 04:31:00 PM 60.7024 -62.2957 223° Southwest  Level FlightAware Approximate
Sat 04:38:00 PM 60.4068 -63.4164 250° West  Level FlightAware Approximate
Sat 04:39:00 PM 60.3741 -63.5919 249° West  Level FlightAware Approximate
Sat 04:40:00 PM 60.3411 -63.7669 249° West  Level FlightAware Approximate
Sat 04:41:00 PM 60.3079 -63.9416 249° West  Level FlightAware Approximate
Sat 04:41:05 PM 60.1667 -64.7167 248° West 450 518 36,000  Level Montreal Center
Sat 04:42:00 PM 60.2744 -64.1160 249° West  Level FlightAware Approximate
Sat 04:42:05 PM 60.1167 -64.9333 245° Southwest 450 518 36,000  Level Montreal Center
Sat 04:43:00 PM 60.2408 -64.2900 249° West  Level FlightAware Approximate
Sat 04:43:05 PM 60.0500 -65.1333 236° Southwest 450 518 36,000  Level Montreal Center
Sat 04:44:00 PM 60.2069 -64.4636 249° West  Level FlightAware Approximate
Sat 04:44:05 PM 59.9667 -65.3333 230° Southwest 440 506 36,000  Level Montreal Center
Sat 04:45:00 PM 60.1728 -64.6369 248° West  Level FlightAware Approximate
Sat 04:45:05 PM 59.8833 -65.4833 222° Southwest 440 506 36,000  Level Montreal Center
Sat 04:46:00 PM 60.1385 -64.8098 248° West  Level FlightAware Approximate
Sat 04:46:05 PM 59.7833 -65.6500 220° Southwest 440 506 36,000  Level Montreal Center
Sat 04:47:00 PM 60.1039 -64.9824 248° West  Level FlightAware Approximate
Sat 04:47:05 PM 59.6833 -65.8167 220° Southwest 440 506 36,000  Level Montreal Center
Sat 04:48:05 PM 59.6000 -65.9833 225° Southwest 440 506 36,000  Level Montreal Center
Sat 04:49:05 PM 59.5000 -66.1333 217° Southwest 440 506 36,000  Level Montreal Center
Sat 04:50:05 PM 59.4167 -66.3000 226° Southwest 440 506 36,000  Level Montreal Center
Sat 04:51:05 PM 59.3333 -66.4500 223° Southwest 440 506 36,000  Level Montreal Center
Sat 04:52:05 PM 59.2167 -66.6167 216° Southwest 440 506 36,000  Level Montreal Center
Sat 04:53:05 PM 59.1333 -66.7667 223° Southwest 440 506 36,000  Level Montreal Center
Sat 04:54:05 PM 59.0333 -66.9333 221° Southwest 440 506 36,000  Level Montreal Center
Sat 04:56:21 PM 58.8167 -67.3333 224° Southwest 450 518 36,000  Level Gander Center
Sat 04:57:05 PM 58.7500 -67.4000 207° Southwest 440 506 36,000  Level Montreal Center
Sat 04:58:05 PM 58.6500 -67.5500 218° Southwest 450 518 36,000  Level Montreal Center
Sat 04:59:05 PM 58.5500 -67.7000 218° Southwest 450 518 36,000  Level Montreal Center
Sat 05:00:05 PM 58.4500 -67.8500 218° Southwest 450 518 36,000  Level Montreal Center
Sat 05:01:05 PM 58.3667 -68.0000 223° Southwest 450 518 36,000  Level Montreal Center
Sat 05:02:05 PM 58.2667 -68.1500 218° Southwest 450 518 36,000  Level Montreal Center
Sat 05:03:05 PM 58.2000 -68.3000 230° Southwest 450 518 36,000  Level Montreal Center
Sat 05:04:05 PM 58.0833 -68.4167 208° Southwest 450 518 36,000  Level Montreal Center
Sat 05:05:05 PM 57.9667 -68.5667 214° Southwest 460 529 36,000  Level Montreal Center
Sat 05:06:05 PM 57.8667 -68.7167 219° Southwest 450 518 36,000  Level Montreal Center
Sat 05:07:05 PM 57.7667 -68.8500 215° Southwest 450 518 36,000  Level Montreal Center
Sat 05:08:05 PM 57.6667 -69.0000 219° Southwest 450 518 36,000  Level Montreal Center
Sat 05:09:05 PM 57.5667 -69.1167 212° Southwest 450 518 36,000  Level Montreal Center
Sat 05:10:05 PM 57.4500 -69.2667 215° Southwest 450 518 36,000  Level Montreal Center
Sat 05:11:05 PM 57.3667 -69.4000 221° Southwest 450 518 36,000  Level Montreal Center
Sat 05:12:05 PM 57.2667 -69.5167 212° Southwest 450 518 36,000  Level Montreal Center
Sat 05:13:05 PM 57.1500 -69.6667 215° Southwest 450 518 36,000  Level Montreal Center
Sat 05:14:05 PM 57.0667 -69.8000 221° Southwest 450 518 36,000  Level Montreal Center
Sat 05:15:05 PM 56.9500 -69.9333 212° Southwest 450 518 36,000  Level Montreal Center
Sat 05:17:05 PM 56.7667 -70.1833 217° Southwest 450 518 36,000  Level Montreal Center
Sat 05:18:05 PM 56.6500 -70.3333 215° Southwest 450 518 36,000  Level Montreal Center
Sat 05:19:05 PM 56.5333 -70.4667 212° Southwest 450 518 36,000  Level Montreal Center
Sat 05:20:05 PM 56.4333 -70.6000 216° Southwest 450 518 36,000  Level Montreal Center
Sat 05:21:05 PM 56.3333 -70.7000 209° Southwest 450 518 36,000  Level Montreal Center
Sat 05:22:05 PM 56.2333 -70.8500 220° Southwest 450 518 36,000  Level Montreal Center
Sat 05:23:05 PM 56.1167 -70.9833 213° Southwest 450 518 36,000  Level Montreal Center
Sat 05:24:05 PM 56.0167 -71.0833 209° Southwest 450 518 36,000  Level Montreal Center
Sat 05:25:05 PM 55.9333 -71.2167 222° Southwest 440 506 36,000  Level Montreal Center
Sat 05:26:05 PM 55.8167 -71.3500 213° Southwest 450 518 36,000  Level Montreal Center
Sat 05:27:05 PM 55.7167 -71.4500 209° Southwest 450 518 36,000  Level Montreal Center
Sat 05:28:05 PM 55.6000 -71.5833 213° Southwest 440 506 36,000  Level Montreal Center
Sat 05:29:05 PM 55.5000 -71.7167 217° Southwest 450 518 36,000  Level Montreal Center
Sat 05:30:05 PM 55.4000 -71.8167 210° Southwest 450 518 36,000  Level Montreal Center
Sat 05:31:05 PM 55.3000 -71.9333 214° Southwest 450 518 36,000  Level Montreal Center
Sat 05:32:05 PM 55.1833 -72.0667 213° Southwest 450 518 36,000  Level Montreal Center
Sat 05:33:05 PM 55.0833 -72.2000 217° Southwest 450 518 36,000  Level Montreal Center
Sat 05:34:05 PM 54.9667 -72.3167 210° Southwest 450 518 36,000  Level Montreal Center
Sat 05:35:05 PM 54.8667 -72.4167 210° Southwest 450 518 36,000  Level Montreal Center
Sat 05:36:05 PM 54.7500 -72.5500 213° Southwest 450 518 36,000  Level Montreal Center
Sat 05:37:05 PM 54.6667 -72.6667 219° Southwest 450 518 36,000  Level Montreal Center
Sat 05:38:05 PM 54.5667 -72.8000 218° Southwest 450 518 36,000  Level Montreal Center
Sat 05:39:05 PM 54.4500 -72.9000 206° Southwest 450 518 36,000  Level Montreal Center
Sat 05:40:05 PM 54.3500 -73.0167 214° Southwest 450 518 36,000  Level Montreal Center
Sat 05:41:05 PM 54.2333 -73.1333 210° Southwest 450 518 36,000  Level Montreal Center
Sat 05:42:05 PM 54.1333 -73.2667 218° Southwest 450 518 36,000  Level Montreal Center
Sat 05:43:05 PM 54.0167 -73.3500 203° Southwest 450 518 36,000  Level Montreal Center
Sat 05:44:05 PM 53.9000 -73.4833 214° Southwest 450 518 36,000  Level Montreal Center
Sat 05:45:05 PM 53.8000 -73.6000 215° Southwest 450 518 36,000  Level Montreal Center
Sat 05:46:05 PM 53.6833 -73.7167 211° Southwest 450 518 36,000  Level Montreal Center
Sat 05:47:05 PM 53.5667 -73.8167 207° Southwest 450 518 36,000  Level Montreal Center
Sat 05:48:05 PM 53.4667 -73.9000 206° Southwest 450 518 36,000  Level Montreal Center
Sat 05:49:05 PM 53.3500 -73.9833 203° Southwest 460 529 36,000  Level Montreal Center
Sat 05:50:05 PM 53.2333 -74.1000 211° Southwest 460 529 36,000  Level Montreal Center
Sat 05:51:05 PM 53.1167 -74.2000 207° Southwest 450 518 36,000  Level Montreal Center
Sat 05:52:05 PM 53.0000 -74.2833 203° Southwest 450 518 36,000  Level Montreal Center
Sat 05:53:05 PM 52.8833 -74.3667 203° Southwest 450 518 36,000  Level Montreal Center
Sat 05:54:05 PM 52.8000 -74.4667 216° Southwest 450 518 36,000  Level Montreal Center
Sat 05:55:05 PM 52.6833 -74.5500 203° Southwest 460 529 36,000  Level Montreal Center
Sat 05:56:05 PM 52.5500 -74.6667 208° Southwest 460 529 36,000  Level Montreal Center
Sat 05:57:05 PM 52.4333 -74.7500 204° Southwest 450 518 36,000  Level Montreal Center
Sat 05:58:05 PM 52.3167 -74.8333 204° Southwest 450 518 36,000  Level Montreal Center
Sat 05:59:05 PM 52.2000 -74.9167 204° Southwest 450 518 36,000  Level Montreal Center
Sat 06:00:05 PM 52.0833 -75.0000 204° Southwest 450 518 36,000  Level Montreal Center
Sat 06:01:05 PM 51.9667 -75.1167 212° Southwest 470 541 36,000  Level Montreal Center
Sat 06:02:05 PM 51.8667 -75.2000 207° Southwest 460 529 36,000  Level Montreal Center
Sat 06:03:05 PM 51.7333 -75.2833 201° Southwest 460 529 36,000  Level Montreal Center
Sat 06:04:05 PM 51.6333 -75.3667 207° Southwest 460 529 36,000  Level Montreal Center
Sat 06:05:05 PM 51.5167 -75.4500 204° Southwest 460 529 36,000  Level Montreal Center
Sat 06:06:05 PM 51.4000 -75.5667 212° Southwest 460 529 36,000  Level Montreal Center
Sat 06:08:00 PM 51.2371 -75.6813 204° Southwest  Level FlightAware Approximate
Sat 06:12:05 PM 50.7000 -76.0667 205° Southwest 460 529 36,000  Level Montreal Center
Sat 06:13:05 PM 50.6000 -76.1500 208° Southwest 460 529 36,000  Level Montreal Center
Sat 06:14:05 PM 50.4833 -76.2333 204° Southwest 450 518 36,000  Level Montreal Center
Sat 06:15:00 PM 50.6430 -76.1009 205° Southwest  Level FlightAware Approximate
Sat 06:15:05 PM 50.3667 -76.3000 200° South 450 518 36,000  Level Montreal Center
Sat 06:16:00 PM 50.5586 -76.1620 205° Southwest  Level FlightAware Approximate
Sat 06:16:05 PM 50.2500 -76.4167 213° Southwest 450 518 36,000  Level Montreal Center
Sat 06:17:00 PM 50.4516 -76.2391 205° Southwest  Level FlightAware Approximate
Sat 06:17:05 PM 50.1333 -76.4833 200° South 460 529 36,000  Level Montreal Center
Sat 06:18:05 PM 50.0000 -76.5667 202° Southwest 460 529 36,000  Level Montreal Center
Sat 06:19:05 PM 49.8833 -76.6500 205° Southwest 450 518 36,000  Level Montreal Center
Sat 06:20:05 PM 49.7833 -76.7167 203° Southwest 450 518 36,000  Level Montreal Center
Sat 06:21:05 PM 49.6667 -76.8167 209° Southwest 460 529 36,000  Level Montreal Center
Sat 06:22:05 PM 49.5500 -76.9000 205° Southwest 450 518 36,000  Level Montreal Center
Sat 06:23:05 PM 49.4333 -76.9667 200° South 460 529 36,000  Level Montreal Center
Sat 06:24:05 PM 49.3167 -77.0500 205° Southwest 470 541 36,000  Level Montreal Center
Sat 06:25:05 PM 49.2000 -77.1167 200° South 440 506 36,000  Level Montreal Center
Sat 06:26:05 PM 49.0833 -77.2167 209° Southwest 460 529 36,000  Level Montreal Center
Sat 06:27:05 PM 48.9667 -77.3000 205° Southwest 450 518 36,000  Level Montreal Center
Sat 06:28:05 PM 48.8500 -77.3667 201° Southwest 450 518 36,000  Level Montreal Center
Sat 06:29:05 PM 48.7333 -77.4500 205° Southwest 450 518 36,000  Level Montreal Center
Sat 06:34:50 PM 48.0880 -77.8730 205° Southwest 449 517 36,000  Level FlightAware ADS-B
Sat 06:35:42 PM 47.9820 -77.9350 201° Southwest 450 518 36,000  Level FlightAware ADS-B
Sat 06:36:21 PM 47.9160 -77.9730 201° Southwest 451 519 36,000  Level FlightAware ADS-B
Sat 06:37:25 PM 47.8100 -78.0340 201° Southwest 451 519 36,000  Level FlightAware ADS-B
Sat 06:38:19 PM 47.6720 -78.1140 201° Southwest 459 528 36,000  Level FlightAware ADS-B
Sat 06:39:07 PM 47.5770 -78.1690 201° Southwest 459 528 36,000  Level FlightAware ADS-B
Sat 06:40:00 PM 47.4720 -78.2300 201° Southwest 459 528 36,000  Level FlightAware ADS-B
Sat 06:40:53 PM 47.3680 -78.2890 201° Southwest 457 526 36,000  Level FlightAware ADS-B
Sat 06:41:13 PM 47.3280 -78.3110 200° South 458 527 36,000  Level FlightAware ADS-B
Sat 06:42:09 PM 47.2170 -78.3750 201° Southwest 456 525 36,000  Level FlightAware ADS-B
Sat 06:43:04 PM 47.1090 -78.4360 201° Southwest 454 522 36,000  Level FlightAware ADS-B
Sat 06:43:58 PM 47.0040 -78.4950 201° Southwest 449 517 36,000  Level FlightAware ADS-B
Sat 06:44:45 PM 46.9150 -78.5450 201° Southwest 449 517 36,000  Level FlightAware ADS-B
Sat 06:45:27 PM 46.8320 -78.5910 201° Southwest 449 517 36,000  Level FlightAware ADS-B
Sat 06:46:21 PM 46.7310 -78.6470 201° Southwest 448 516 36,000  Level FlightAware ADS-B
Sat 06:47:05 PM 46.6440 -78.6950 201° Southwest 449 517 36,000  Level FlightAware ADS-B
Sat 06:47:53 PM 46.5510 -78.7470 201° Southwest 448 516 36,000  Level FlightAware ADS-B
Sat 06:48:25 PM 46.4890 -78.7810 201° Southwest 446 513 36,000  Level FlightAware ADS-B
Sat 06:49:05 PM 46.4100 -78.8250 201° Southwest 444 511 36,000  Level FlightAware ADS-B
Sat 06:49:53 PM 46.3180 -78.8750 201° Southwest 444 511 36,000  Level FlightAware ADS-B
Sat 06:50:45 PM 46.2190 -78.9290 201° Southwest 443 510 36,000  Level FlightAware ADS-B
Sat 06:51:38 PM 46.1160 -78.9850 201° Southwest 445 512 36,000  Level FlightAware ADS-B
Sat 06:52:07 PM 46.0610 -79.0150 201° Southwest 446 513 36,000  Level FlightAware ADS-B
Sat 06:52:30 PM 46.0150 -79.0400 201° Southwest 447 514 36,000  Level FlightAware ADS-B
Sat 06:53:25 PM 45.9100 -79.0960 200° South 445 512 36,000  Level FlightAware ADS-B
Sat 06:54:09 PM 45.8260 -79.1410 200° South 442 509 36,000  Level FlightAware ADS-B
Sat 06:54:36 PM 45.7730 -79.1700 201° Southwest 442 509 36,000  Level FlightAware ADS-B
Sat 06:55:19 PM 45.6920 -79.2130 200° South 441 507 36,000  Level FlightAware ADS-B
Sat 06:56:05 PM 45.6030 -79.2600 200° South 441 507 36,000  Level FlightAware ADS-B
Sat 06:56:45 PM 45.5280 -79.3000 200° South 440 506 36,000  Level FlightAware ADS-B
Sat 06:57:29 PM 45.4440 -79.3450 201° Southwest 437 503 36,000  Level FlightAware ADS-B
Sat 06:58:28 PM 45.3320 -79.4040 200° South 434 499 36,000  Level FlightAware ADS-B
Sat 06:59:13 PM 45.2500 -79.4470 200° South 437 503 36,000  Level FlightAware ADS-B
Sat 06:59:45 PM 45.1870 -79.4800 200° South 438 504 36,000  Level FlightAware ADS-B
Sat 07:00:25 PM 45.1110 -79.5200 200° South 439 505 36,000  Level FlightAware ADS-B
Sat 07:01:08 PM 45.0290 -79.5620 200° South 439 505 36,000  Level FlightAware ADS-B
Sat 07:02:11 PM 44.9100 -79.6250 201° Southwest 436 502 36,000  Level FlightAware ADS-B
Sat 07:03:09 PM 44.8000 -79.6810 200° South 437 503 36,000  Level FlightAware ADS-B
Sat 07:03:32 PM 44.7570 -79.7030 200° South 436 502 36,000  Level FlightAware ADS-B
Sat 07:04:37 PM 44.6340 -79.7660 200° South 433 498 36,000  Level FlightAware ADS-B
Sat 07:05:29 PM 44.5400 -79.8290 206° Southwest 422 486 36,000 420 Level FlightAware ADS-B
Sat 07:06:17 PM 44.4620 -79.9010 213° Southwest 422 486 36,700 866 Climbing FlightAware ADS-B
Sat 07:07:06 PM 44.3810 -79.9740 213° Southwest 426 490 37,400 809 Climbing FlightAware ADS-B
Sat 07:07:46 PM 44.3150 -80.0340 213° Southwest 433 498 37,900 554 Climbing FlightAware ADS-B
Sat 07:08:11 PM 44.2720 -80.0720 212° Southwest 434 499 38,000 73 Climbing FlightAware ADS-B
Sat 07:09:08 PM 44.1770 -80.1570 213° Southwest 432 497 38,000  Level FlightAware ADS-B
Sat 07:09:57 PM 44.0980 -80.2280 213° Southwest 432 497 38,000  Level FlightAware ADS-B
Sat 07:10:41 PM 44.0210 -80.2960 212° Southwest 431 496 38,000  Level FlightAware ADS-B
Sat 07:11:35 PM 43.9300 -80.3760 212° Southwest 430 495 38,000  Level FlightAware ADS-B
Sat 07:12:10 PM 43.8730 -80.4270 213° Southwest 429 494 38,000  Level FlightAware ADS-B
Sat 07:12:53 PM 43.7990 -80.4920 212° Southwest 428 493 38,000  Level FlightAware ADS-B
Sat 07:13:26 PM 43.7440 -80.5400 212° Southwest 428 493 38,000  Level FlightAware ADS-B
Sat 07:14:22 PM 43.6510 -80.6210 212° Southwest 429 494 38,000  Level FlightAware ADS-B
Sat 07:15:51 PM 43.5020 -80.7500 212° Southwest 429 494 38,000  Level FlightAware ADS-B
Sat 07:16:43 PM 43.4170 -80.8240 212° Southwest 430 495 38,000  Level FlightAware ADS-B
Sat 07:17:35 PM 43.3270 -80.9020 212° Southwest 431 496 38,000  Level FlightAware ADS-B
Sat 07:18:23 PM 43.2460 -80.9710 212° Southwest 428 493 38,000  Level FlightAware ADS-B
Sat 07:19:10 PM 43.1670 -81.0390 212° Southwest 427 491 38,000  Level FlightAware ADS-B
Sat 07:19:58 PM 43.0860 -81.1080 212° Southwest 428 493 38,000  Level FlightAware ADS-B
Sat 07:20:41 PM 43.0110 -81.1650 209° Southwest 436 502 38,000  Level FlightAware ADS-B
Sat 07:23:00 PM 42.8125 -81.2805 203° Southwest  Level FlightAware Approximate
Sat 07:24:00 PM 42.7264 -81.3296 202° Southwest  Level FlightAware Approximate
Sat 07:25:00 PM 42.6399 -81.3768 202° Southwest  Level FlightAware Approximate
Sat 07:26:00 PM 42.5537 -81.4245 204° Southwest  Level FlightAware Approximate
Sat 07:27:00 PM 42.4685 -81.4757 204° Southwest  Level FlightAware Approximate
Sat 07:28:00 PM 42.3833 -81.5268 204° Southwest  Level FlightAware Approximate
Sat 07:28:12 PM 42.1770 -81.6760 204° Southwest 443 510 38,000  Level FlightAware ADS-B
Sat 07:29:08 PM 42.0770 -81.7350 204° Southwest 444 511 38,000  Level FlightAware ADS-B
Sat 07:29:30 PM 42.0310 -81.7630 204° Southwest 443 510 38,000  Level FlightAware ADS-B
Sat 07:30:22 PM 41.9330 -81.8220 204° Southwest 441 507 38,000  Level FlightAware ADS-B
Sat 07:31:05 PM 41.8580 -81.8670 204° Southwest 441 507 38,000  Level FlightAware ADS-B
Sat 07:31:55 PM 41.7620 -81.9240 204° Southwest 441 507 38,000  Level FlightAware ADS-B
Sat 07:32:34 PM 41.6870 -81.9680 204° Southwest 440 506 38,000  Level FlightAware ADS-B
Sat 07:33:20 PM 41.6030 -82.0180 204° Southwest 438 504 38,000  Level FlightAware ADS-B
Sat 07:34:08 PM 41.5100 -82.0620 200° South 443 510 38,000  Level FlightAware ADS-B
Sat 07:34:56 PM 41.4160 -82.0930 194° South 438 504 38,000  Level FlightAware ADS-B
Sat 07:35:34 PM 41.3390 -82.1180 194° South 437 503 38,000  Level FlightAware ADS-B
Sat 07:36:22 PM 41.2460 -82.1500 195° South 438 504 38,000  Level FlightAware ADS-B
Sat 07:37:14 PM 41.1430 -82.1840 194° South 441 507 38,000  Level FlightAware ADS-B
Sat 07:38:02 PM 41.0490 -82.2150 194° South 444 511 38,000  Level FlightAware ADS-B
Sat 07:38:26 PM 41.0010 -82.2310 194° South 444 511 38,000  Level FlightAware ADS-B
Sat 07:39:22 PM 40.8900 -82.2680 194° South 439 505 38,000  Level FlightAware ADS-B
Sat 07:40:14 PM 40.7870 -82.3020 194° South 440 506 38,000  Level FlightAware ADS-B
Sat 07:41:03 PM 40.6910 -82.3340 194° South 439 505 38,000  Level FlightAware ADS-B
Sat 07:41:43 PM 40.6110 -82.3600 194° South 442 509 38,000  Level FlightAware ADS-B
Sat 07:42:22 PM 40.5350 -82.3850 194° South 445 512 38,000  Level FlightAware ADS-B
Sat 07:42:50 PM 40.4780 -82.4030 194° South 446 513 38,000  Level FlightAware ADS-B
Sat 07:43:35 PM 40.3860 -82.4330 194° South 446 513 38,000  Level FlightAware ADS-B
Sat 07:44:09 PM 40.3200 -82.4550 194° South 447 514 38,000  Level FlightAware ADS-B
Sat 07:44:55 PM 40.2270 -82.4850 194° South 448 516 38,000  Level FlightAware ADS-B
Sat 07:45:39 PM 40.1380 -82.5140 194° South 448 516 38,000  Level FlightAware ADS-B
Sat 07:46:27 PM 40.0430 -82.5450 194° South 446 513 38,000  Level FlightAware ADS-B
Sat 07:47:11 PM 39.9530 -82.5740 194° South 443 510 38,000  Level FlightAware ADS-B
Sat 07:47:31 PM 39.9140 -82.5860 193° South 442 509 38,000  Level FlightAware ADS-B
Sat 07:48:15 PM 39.8270 -82.6140 194° South 440 506 38,000  Level FlightAware ADS-B
Sat 07:48:43 PM 39.7720 -82.6310 193° South 436 502 38,000  Level FlightAware ADS-B
Sat 07:49:31 PM 39.6800 -82.6610 194° South 433 498 38,000 255 Level FlightAware ADS-B
Sat 07:50:17 PM 39.5900 -82.6890 193° South 432 497 38,400 533 Climbing FlightAware ADS-B
Sat 07:51:01 PM 39.5060 -82.7160 194° South 431 496 38,800 563 Climbing FlightAware ADS-B
Sat 07:51:21 PM 39.4650 -82.7290 194° South 431 496 39,000 468 Climbing FlightAware ADS-B
Sat 07:52:18 PM 39.3550 -82.7640 194° South 437 503 39,400 480 Climbing FlightAware ADS-B
Sat 07:53:01 PM 39.2670 -82.7920 194° South 442 509 39,800 434 Climbing FlightAware ADS-B
Sat 07:53:41 PM 39.1910 -82.8160 194° South 446 513 40,000 158 Climbing FlightAware ADS-B
Sat 07:54:17 PM 39.1170 -82.8390 194° South 444 511 40,000  Level FlightAware ADS-B
Sat 07:55:10 PM 39.0110 -82.8720 194° South 444 511 40,000  Level FlightAware ADS-B
Sat 07:56:02 PM 38.9070 -82.9040 193° South 447 514 40,000  Level FlightAware ADS-B
Sat 07:56:57 PM 38.7950 -82.9390 194° South 450 518 40,000  Level FlightAware ADS-B
Sat 07:57:34 PM 38.7210 -82.9620 194° South 451 519 40,000  Level FlightAware ADS-B
Sat 07:58:13 PM 38.6410 -82.9870 194° South 450 518 40,000  Level FlightAware ADS-B
Sat 07:58:58 PM 38.5500 -83.0150 194° South 446 513 40,000  Level FlightAware ADS-B
Sat 07:59:42 PM 38.4640 -83.0410 193° South 440 506 40,000  Level FlightAware ADS-B
Sat 08:00:30 PM 38.3680 -83.0710 194° South 437 503 40,000  Level FlightAware ADS-B
Sat 08:01:05 PM 38.2989 -83.0920 193° South 436 502 40,000  Level FlightAware ADS-B
Sat 08:02:06 PM 38.1810 -83.1280 193° South 434 499 40,000  Level FlightAware ADS-B
Sat 08:02:46 PM 38.1050 -83.1510 193° South 432 497 40,000  Level FlightAware ADS-B
Sat 08:03:32 PM 38.0130 -83.1790 193° South 429 494 40,000  Level FlightAware ADS-B
Sat 08:03:54 PM 37.9695 -83.1923 194° South 429 494 40,000  Level FlightAware ADS-B
Sat 08:04:27 PM 37.9056 -83.2117 193° South 431 496 40,000  Level FlightAware ADS-B
Sat 08:05:03 PM 37.8373 -83.2323 193° South 432 497 40,000  Level FlightAware ADS-B
Sat 08:05:38 PM 37.7677 -83.2533 193° South 432 497 40,000  Level FlightAware ADS-B
Sat 08:06:33 PM 37.6611 -83.2856 193° South 432 497 40,000  Level FlightAware ADS-B
Sat 08:07:03 PM 37.6031 -83.3029 193° South 431 496 40,000  Level FlightAware ADS-B
Sat 08:07:36 PM 37.5402 -83.3217 193° South 430 495 40,000  Level FlightAware ADS-B
Sat 08:08:07 PM 37.4796 -83.3399 193° South 430 495 40,000  Level FlightAware ADS-B
Sat 08:08:37 PM 37.4207 -83.3574 193° South 430 495 40,000  Level FlightAware ADS-B
Sat 08:09:08 PM 37.3608 -83.3753 193° South 430 495 40,000  Level FlightAware ADS-B
Sat 08:09:39 PM 37.3021 -83.3927 193° South 431 496 40,000  Level FlightAware ADS-B
Sat 08:10:11 PM 37.2393 -83.4114 193° South 430 495 40,000  Level FlightAware ADS-B
Sat 08:10:44 PM 37.1749 -83.4307 193° South 431 496 40,000  Level FlightAware ADS-B
Sat 08:11:15 PM 37.1149 -83.4484 193° South 431 496 40,000  Level FlightAware ADS-B
Sat 08:11:52 PM 37.0436 -83.4695 193° South 433 498 40,000  Level FlightAware ADS-B
Sat 08:12:22 PM 36.9845 -83.4870 193° South 434 499 40,000  Level FlightAware ADS-B
Sat 08:13:10 PM 36.8912 -83.5145 193° South 435 501 40,000  Level FlightAware ADS-B
Sat 08:13:40 PM 36.8319 -83.5319 193° South 435 501 40,000  Level FlightAware ADS-B
Sat 08:14:11 PM 36.7722 -83.5494 193° South 436 502 40,000  Level FlightAware ADS-B
Sat 08:14:48 PM 36.6993 -83.5708 193° South 436 502 40,000  Level FlightAware ADS-B
Sat 08:15:23 PM 36.6306 -83.5909 193° South 436 502 40,000  Level FlightAware ADS-B
Sat 08:16:05 PM 36.5480 -83.6150 193° South 436 502 40,000  Level FlightAware ADS-B
Sat 08:16:24 PM 36.5108 -83.6258 193° South 437 503 40,000  Level FlightAware ADS-B
Sat 08:16:54 PM 36.4511 -83.6432 193° South 438 504 40,000  Level FlightAware ADS-B
Sat 08:17:26 PM 36.3894 -83.6612 193° South 435 501 40,000  Level FlightAware ADS-B
Sat 08:17:56 PM 36.3300 -83.6783 193° South 436 502 40,000  Level FlightAware ADS-B
Sat 08:18:27 PM 36.2681 -83.6963 193° South 436 502 40,000  Level FlightAware ADS-B
Sat 08:18:59 PM 36.2064 -83.7142 193° South 438 504 40,000  Level FlightAware ADS-B
Sat 08:19:29 PM 36.1465 -83.7315 193° South 440 506 40,000  Level FlightAware ADS-B
Sat 08:20:00 PM 36.0851 -83.7492 193° South 442 509 40,000  Level FlightAware ADS-B
Sat 08:20:30 PM 36.0247 -83.7667 193° South 444 511 40,000  Level FlightAware ADS-B
Sat 08:21:01 PM 35.9637 -83.7841 193° South 444 511 40,000  Level FlightAware ADS-B
Sat 08:21:36 PM 35.8925 -83.8044 193° South 441 507 40,000  Level FlightAware ADS-B
Sat 08:22:07 PM 35.8317 -83.8218 193° South 439 505 40,000  Level FlightAware ADS-B
Sat 08:22:37 PM 35.7721 -83.8389 193° South 437 503 40,000  Level FlightAware ADS-B
Sat 08:23:13 PM 35.7024 -83.8588 193° South 437 503 40,000  Level FlightAware ADS-B
Sat 08:23:44 PM 35.6419 -83.8759 193° South 437 503 40,000  Level FlightAware ADS-B
Sat 08:24:14 PM 35.5818 -83.8930 193° South 437 503 40,000  Level FlightAware ADS-B
Sat 08:24:45 PM 35.5203 -83.9106 193° South 437 503 40,000  Level FlightAware ADS-B
Sat 08:25:15 PM 35.4610 -83.9274 193° South 438 504 40,000  Level FlightAware ADS-B
Sat 08:25:46 PM 35.4007 -83.9445 193° South 438 504 40,000  Level FlightAware ADS-B
Sat 08:26:25 PM 35.3237 -83.9663 193° South 438 504 40,000  Level FlightAware ADS-B
Sat 08:26:57 PM 35.2609 -83.9841 193° South 437 503 40,000  Level FlightAware ADS-B
Sat 08:27:29 PM 35.1974 -84.0019 193° South 437 503 40,000  Level FlightAware ADS-B
Sat 08:28:07 PM 35.1237 -84.0227 193° South 437 503 40,000  Level FlightAware ADS-B
Sat 08:28:38 PM 35.0617 -84.0401 193° South 436 502 40,000  Level FlightAware ADS-B
Sat 08:29:08 PM 35.0018 -84.0568 193° South 434 499 40,000  Level FlightAware ADS-B
Sat 08:29:38 PM 34.9435 -84.0731 193° South 433 498 40,000  Level FlightAware ADS-B
Sat 08:30:08 PM 34.8844 -84.0896 193° South 432 497 40,000  Level FlightAware ADS-B
Sat 08:30:39 PM 34.8259 -84.1059 193° South 432 497 40,000  Level FlightAware ADS-B
Sat 08:31:09 PM 34.7656 -84.1228 193° South 432 497 40,000  Level FlightAware ADS-B
Sat 08:31:40 PM 34.7057 -84.1394 193° South 433 498 40,000  Level FlightAware ADS-B
Sat 08:32:22 PM 34.6290 -84.1610 193° South 433 498 40,000  Level FlightAware ADS-B
Sat 08:32:35 PM 34.5984 -84.1694 193° South 434 499 40,000  Level FlightAware ADS-B
Sat 08:33:05 PM 34.5393 -84.1857 193° South 435 501 40,000  Level FlightAware ADS-B
Sat 08:33:36 PM 34.4807 -84.2020 193° South 435 501 40,000  Level FlightAware ADS-B
Sat 08:34:06 PM 34.4197 -84.2188 193° South 436 502 40,000  Level FlightAware ADS-B
Sat 08:34:36 PM 34.3596 -84.2353 193° South 436 502 40,000  Level FlightAware ADS-B
Sat 08:35:07 PM 34.3004 -84.2516 193° South 437 503 40,000  Level FlightAware ADS-B
Sat 08:35:37 PM 34.2412 -84.2679 193° South 437 503 40,000  Level FlightAware ADS-B
Sat 08:36:23 PM 34.1497 -84.2931 193° South 438 504 40,000  Level FlightAware ADS-B
Sat 08:36:56 PM 34.0839 -84.3112 193° South 441 507 40,000  Level FlightAware ADS-B
Sat 08:37:28 PM 34.0205 -84.3285 193° South 443 510 40,000  Level FlightAware ADS-B
Sat 08:37:44 PM 33.9883 -84.3365 192° South 447 514 40,000  Level FlightAware ADS-B
Sat 08:37:59 PM 33.9565 -84.3381 182° South 459 528 40,000  Level FlightAware ADS-B
Sat 08:38:05 PM 33.9433 -84.3368 175° South 462 532 40,000  Level FlightAware ADS-B
Sat 08:38:36 PM 33.8788 -84.3291 174° South 463 533 40,000  Level FlightAware ADS-B
Sat 08:39:06 PM 33.8142 -84.3216 174° South 463 533 40,000  Level FlightAware ADS-B
Sat 08:39:36 PM 33.7500 -84.3142 175° South 463 533 40,000  Level FlightAware ADS-B
Sat 08:40:14 PM 33.6686 -84.3049 175° South 462 532 40,000  Level FlightAware ADS-B
Sat 08:40:44 PM 33.6047 -84.2976 175° South 461 531 40,000  Level FlightAware ADS-B
Sat 08:41:17 PM 33.5345 -84.2898 175° South 460 529 40,000  Level FlightAware ADS-B
Sat 08:41:48 PM 33.4680 -84.2824 175° South 460 529 40,000  Level FlightAware ADS-B
Sat 08:42:19 PM 33.4024 -84.2752 175° South 460 529 40,000  Level FlightAware ADS-B
Sat 08:42:49 PM 33.3420 -84.2680 174° South 460 529 40,000  Level FlightAware ADS-B
Sat 08:43:33 PM 33.2470 -84.2581 175° South 460 529 40,000  Level FlightAware ADS-B
Sat 08:44:27 PM 33.1340 -84.2460 175° South 460 529 40,000  Level FlightAware ADS-B
Sat 08:45:08 PM 33.0460 -84.2360 175° South 458 527 40,000  Level FlightAware ADS-B
Sat 08:45:56 PM 32.9450 -84.2250 175° South 457 526 40,000  Level FlightAware ADS-B
Sat 08:46:46 PM 32.8410 -84.2140 175° South 456 525 40,000  Level FlightAware ADS-B
Sat 08:47:54 PM 32.7000 -84.1980 175° South 455 524 40,000  Level FlightAware ADS-B
Sat 08:48:41 PM 32.6000 -84.1870 175° South 454 522 40,000  Level FlightAware ADS-B
Sat 08:49:45 PM 32.4860 -84.1730 174° South 454 522 40,000  Level FlightAware ADS-B
Sat 08:50:22 PM 32.4210 -84.1650 174° South 454 522 40,000  Level FlightAware ADS-B
Sat 08:51:10 PM 32.3350 -84.1540 174° South 454 522 40,000  Level FlightAware ADS-B
Sat 08:51:58 PM 32.2500 -84.1440 174° South 454 522 40,000  Level FlightAware ADS-B
Sat 08:52:35 PM 32.1850 -84.1360 174° South 454 522 40,000  Level FlightAware ADS-B
Sat 08:52:59 PM 32.1420 -84.1300 173° South 454 522 40,000  Level FlightAware ADS-B
Sat 08:53:47 PM 32.0570 -84.1200 174° South 454 522 40,000  Level FlightAware ADS-B
Sat 08:54:35 PM 31.9710 -84.1090 174° South 454 522 40,000  Level FlightAware ADS-B
Sat 08:55:43 PM 31.7280 -84.0940 177° South 448 516 40,000 -248 Level FlightAware ADS-B
Sat 08:56:36 PM 31.6210 -84.0830 175° South 451 519 39,500 -758 Descending FlightAware ADS-B
Sat 08:57:18 PM 31.5300 -84.0730 175° South 449 517 38,800 -1,037 Descending FlightAware ADS-B
Sat 08:57:57 PM 31.4480 -84.0640 175° South 445 512 38,100 -940 Descending FlightAware ADS-B
Sat 08:58:41 PM 31.3580 -84.0410 168° South 476 548 37,500 -857 Descending FlightAware ADS-B
Sat 08:59:14 PM 31.2930 -84.0080 157° South 475 547 37,000 -429 Descending FlightAware ADS-B
Sat 08:59:51 PM 31.2180 -83.9689 156° South 466 536 37,000  Level FlightAware ADS-B (KONZ)
Sat 09:00:33 PM 31.1465 -83.9333 157° South 467 537 37,000  Level FlightAware ADS-B (KONZ)
Sat 09:01:12 PM 31.0568 -83.8896 157° South 466 536 37,000  Level FlightAware ADS-B (KONZ)
Sat 09:01:54 PM 30.9731 -83.8486 157° South 464 534 37,000  Level FlightAware ADS-B (KONZ)
Sat 09:02:24 PM 30.9173 -83.8213 157° South 463 533 37,000  Level FlightAware ADS-B (KONZ)
Sat 09:02:58 PM 30.8478 -83.7874 157° South 462 532 37,000  Level FlightAware ADS-B (KONZ)
Sat 09:03:30 PM 30.7848 -83.7568 157° South 460 529 37,000  Level FlightAware ADS-B (KONZ)
Sat 09:04:34 PM 30.6606 -83.6964 157° South 459 528 37,000  Level FlightAware ADS-B (KONZ)
Sat 09:05:12 PM 30.5829 -83.6587 157° South 459 528 37,000  Level FlightAware ADS-B (KONZ)
Sat 09:05:44 PM 30.5216 -83.6290 157° South 457 526 37,000  Level FlightAware ADS-B (KONZ)
Sat 09:06:23 PM 30.4459 -83.5925 157° South 457 526 37,000  Level FlightAware ADS-B (KONZ)
Sat 09:06:54 PM 30.3838 -83.5625 157° South 457 526 37,000  Level FlightAware ADS-B
Sat 09:07:29 PM 30.3149 -83.5291 157° South 455 524 37,000  Level FlightAware ADS-B (KONZ)
Sat 09:08:02 PM 30.2542 -83.4999 157° South 454 522 37,000  Level FlightAware ADS-B (KONZ)
Sat 09:08:40 PM 30.1775 -83.4630 157° South 454 522 37,000  Level FlightAware ADS-B
Sat 09:11:00 PM 29.9781 -83.3658 157° South  Level FlightAware Approximate
Sat 09:11:48 PM 29.8130 -83.2890 157° South 453 521 37,000  Level FlightAware ADS-B
Sat 09:12:00 PM 29.8927 -83.3243 157° South  Level FlightAware Approximate
Sat 09:12:33 PM 29.7250 -83.2470 157° South 453 521 37,000  Level FlightAware ADS-B
Sat 09:12:58 PM 29.6760 -83.2230 157° South 452 520 37,000  Level FlightAware ADS-B
Sat 09:13:53 PM 29.5670 -83.1720 158° South 451 519 37,000  Level FlightAware ADS-B
Sat 09:14:33 PM 29.4890 -83.1350 158° South 452 520 37,000  Level FlightAware ADS-B
Sat 09:15:28 PM 29.3810 -83.0840 158° South 452 520 37,000  Level FlightAware ADS-B
Sat 09:16:18 PM 29.2820 -83.0370 158° South 451 519 37,000  Level FlightAware ADS-B
Sat 09:19:00 PM 29.0533 -82.9219 158° South  Level FlightAware Approximate
Sat 09:20:00 PM 28.9675 -82.8822 158° South  Level FlightAware Approximate
Sat 09:20:31 PM 28.7844 -82.8036 158° South 457 526 37,000  Level FlightAware ADS-B
Sat 09:21:27 PM 28.6752 -82.7528 158° South 457 526 37,000  Level FlightAware ADS-B
Sat 09:21:59 PM 28.6168 -82.7256 158° South 457 526 37,000  Level FlightAware ADS-B
Sat 09:22:29 PM 28.5524 -82.6957 158° South 456 525 37,000  Level FlightAware ADS-B
Sat 09:22:59 PM 28.4941 -82.6686 158° South 456 525 37,000  Level FlightAware ADS-B
Sat 09:23:29 PM 28.4355 -82.6414 158° South 455 524 37,000  Level FlightAware ADS-B
Sat 09:24:02 PM 28.3723 -82.6122 158° South 453 521 37,000  Level FlightAware ADS-B
Sat 09:24:40 PM 28.2982 -82.5779 158° South 449 517 37,000  Level FlightAware ADS-B
Sat 09:25:12 PM 28.2473 -82.5544 158° South 449 517 37,000  Level FlightAware ADS-B
Sat 09:25:43 PM 28.1774 -82.5223 158° South 449 517 37,000  Level FlightAware ADS-B
Sat 09:26:23 PM 28.0997 -82.4865 158° South 449 517 37,000  Level FlightAware ADS-B
Sat 09:27:04 PM 28.0215 -82.4505 158° South 450 518 37,000  Level FlightAware ADS-B
Sat 09:27:29 PM 27.9713 -82.4351 165° South 425 489 37,000  Level FlightAware ADS-B
Sat 09:27:45 PM 27.9436 -82.4341 178° South 406 467 37,000  Level FlightAware ADS-B
Sat 09:28:25 PM 27.8713 -82.4360 181° South 409 471 37,000  Level FlightAware ADS-B
Sat 09:29:06 PM 27.7884 -82.4376 181° South 412 474 37,000  Level FlightAware ADS-B
Sat 09:29:37 PM 27.7300 -82.4390 181° South 413 475 37,000  Level FlightAware ADS-B
Sat 09:30:09 PM 27.6688 -82.4401 181° South 413 475 37,000  Level FlightAware ADS-B
Sat 09:32:00 PM 27.5454 -82.3061 136° Southeast  Level FlightAware Approximate
Sat 09:32:19 PM 27.4210 -82.4460 136° Southeast 414 476 37,000  Level FlightAware ADS-B
Sat 09:33:19 PM 27.3098 -82.4480 181° South 416 479 37,000  Level FlightAware ADS-B
Sat 09:33:50 PM 27.2653 -82.4490 181° South 417 480 37,000  Level FlightAware ADS-B
Sat 09:34:20 PM 27.1871 -82.4506 181° South 417 480 37,000  Level FlightAware ADS-B
Sat 09:34:59 PM 27.1134 -82.4524 181° South 416 479 37,000  Level FlightAware ADS-B
Sat 09:35:39 PM 27.0360 -82.4540 181° South 414 476 37,000  Level FlightAware ADS-B
Sat 09:36:25 PM 26.9464 -82.4559 181° South 413 475 37,000  Level FlightAware ADS-B
Sat 09:37:00 PM 26.8786 -82.4574 181° South 414 476 37,000 -136 Level FlightAware ADS-B
Sat 09:39:00 PM 26.6942 -82.4616 181° South  Level FlightAware Approximate
Sat 09:40:00 PM 26.6020 -82.4637 181° South  Level FlightAware Approximate
Sat 09:41:00 PM 26.5098 -82.4658 181° South  Level FlightAware Approximate
Sat 09:42:00 PM 26.4176 -82.4679 181° South  Level FlightAware Approximate
Sat 09:43:00 PM 26.3254 -82.4700 181° South  Level FlightAware Approximate
Sat 09:44:00 PM 26.2332 -82.4721 181° South  Level FlightAware Approximate
Sat 09:45:00 PM 26.1410 -82.4742 181° South  Level FlightAware Approximate
Sat 09:46:00 PM 26.0488 -82.4762 181° South  Level FlightAware Approximate
Sat 09:47:00 PM 25.9566 -82.4783 181° South  Level FlightAware Approximate
Sat 09:48:00 PM 25.8645 -82.4804 181° South  Level FlightAware Approximate
Sat 09:49:00 PM 25.7723 -82.4825 181° South  Level FlightAware Approximate
Sat 09:50:00 PM 25.6802 -82.4858 182° South  Level FlightAware Approximate
Sat 09:51:00 PM 25.5881 -82.4900 182° South  Level FlightAware Approximate
Sat 09:52:00 PM 25.4959 -82.4941 182° South  Level FlightAware Approximate
Sat 09:52:33 PM 25.0970 -82.4960 182° South 421 484 34,800  Level FlightAware ADS-B
Sat 09:53:09 PM 25.0370 -82.4970 181° South 421 484 34,800  Level FlightAware ADS-B
Sat 09:53:46 PM 24.9760 -82.4980 181° South 421 484 34,800 -2,333 Level FlightAware ADS-B
Sat 09:54:21 PM 24.8510 -82.5010 181° South 435 501 32,000 -1,732 Descending FlightAware ADS-B
Sat 09:55:23 PM 24.7450 -82.5030 181° South 435 501 32,000  Level FlightAware ADS-B
Sat 09:56:00 PM 24.6810 -82.5040 181° South 435 501 32,000  Level FlightAware ADS-B
Sat 09:56:36 PM 24.6200 -82.5050 181° South 435 501 32,000  Level FlightAware ADS-B
Sat 09:57:12 PM 24.5580 -82.5070 182° South 435 501 32,000  Level FlightAware ADS-B
Sat 09:58:00 PM 24.4760 -82.5080 181° South 435 501 32,000 -2,820 Level FlightAware ADS-B
Sat 09:58:52 PM 24.3406 -82.5133 181° South 421 484 27,300 -3,514 Descending Miami Center
Sat 09:59:51 PM 24.2258 -82.5172 182° South 421 484 25,500 -1,765 Descending Miami Center
Sat 10:00:51 PM 24.1108 -82.5189 181° South 421 484 23,800 -1,736 Descending Miami Center
Sat 10:01:52 PM 23.9961 -82.5206 181° South 421 484 22,000 -1,714 Descending Miami Center
Sat 10:02:50 PM 23.8869 -82.5317 185° South 415 478 20,400 -1,655 Descending Miami Center
Sat 10:04:00 PM 23.7860 -82.4911 160° South  Level FlightAware Approximate
Sat 10:11:00 PM 23.1420 -82.4167 180° South  Level FlightAware Approximate
Sat 10:12:00 PM 23.0511 -82.4002 170° South  Level FlightAware Approximate
Sat 10:13:00 PM 22.9891 -82.4091 180° South  Level Estimated
Sat 10:14:00 PM 22.9891 -82.4091 180° South  Level Estimated
Sat 10:15:00 PM 22.9891 -82.4091 180° South  Level Estimated
Sat 10:16:00 PM 22.9891 -82.4091 180° South  Level Estimated
Sat 10:17:00 PM 22.9891 -82.4091 180° South  Level Estimated
Sat 10:18:00 PM 22.9891 -82.4091 180° South  Level Estimated
Sat 10:19:00 PM 22.9891 -82.4091 180° South  Level Estimated
Sat 10:20:00 PM 22.9891 -82.4091 180° South  Level Estimated
Sat 10:21:00 PM 22.9891 -82.4091 180° South  Level Estimated
Sat 10:22:00 PM 22.9891 -82.4091 180° South  Level Estimated
Sat 10:23:00 PM 22.9891 -82.4091 180° South  Level Estimated
Sat 10:24:00 PM 22.9891 -82.4091 180° South  Level Estimated
Sat 10:25:00 PM 22.9891 -82.4091 180° South  Level Estimated
Sat 10:26:00 PM 22.9891 -82.4091 180° South  Level Estimated
Sat 10:27:00 PM 22.9891 -82.4091 180° South  Level Estimated
Sat 10:28:00 PM 22.9891 -82.4091 180° South  Level Estimated
Sat 10:29:00 PM 22.9891 -82.4091 180° South  Level Estimated
Sat 10:30:00 PM 22.9891 -82.4091 180° South  Level Estimated
Sat 10:31:00 PM 22.9891 -82.4091 180° South  Level Estimated
Sat 10:32:00 PM 22.9891 -82.4091 180° South  Level Estimated

Login

Don't have an account? Register now (free) for customized features, flight alerts, and more!